THY90 LTFM-RKSI
Flight info
| Callsign | THY90 |
|---|---|
| Flight time | 9h 0m |
| Altitude | 37000 |
| Route | EKAWE UT643 GAKSU UT310 SIN UN644 ROLIN DCT FOQUS DCT LAGAS DCT DISKA M737 VERCA M747 BAGVA DCT ERLEV M11 RODAR A909 TUNEK B143 KRS A480 OTBOR/K0889F370 N147 OFFES/K0893F390 N147 GENDI Z621 ARBOL M610 RULAD/K0887S1190 A343 POSOT B215 FKG W188 LIKMI W270 DKO/K0885S1250 W69 HUR B339 LADIX W34 VAPGU W100 ORAVA W201 UNSEK A326 DONVO G597 AGAVO/N0483F410 Y644 REBIT REBIT2H |
| Aircraft | A359/H-SDE2E3GHIJ3J4J5LM1ORWXY/LB1D1 |
Departure
| Time | 2026-05-04 21:55 |
|---|---|
| Airport | İstanbul Airport (LTFM) |
Arrival
| Time | 2026-05-05 06:55 |
|---|---|
| Airport | Incheon International Airport (RKSI) |
| Time | Latitude | Longitude | Altitude | Speed | Heading |
|---|---|---|---|---|---|
| 2026-05-04 21:24 | 41.26474 | 28.74125 | 320 ft | 0 kts | 89° |
| 2026-05-04 21:43 | 41.26474 | 28.74119 | 318 ft | 2 kts | 89° |
| 2026-05-04 21:43 | 41.26474 | 28.74097 | 318 ft | 2 kts | 89° |
| 2026-05-04 21:43 | 41.26474 | 28.74076 | 315 ft | 2 kts | 89° |
| 2026-05-04 21:43 | 41.26473 | 28.74054 | 315 ft | 2 kts | 81° |
| 2026-05-04 21:44 | 41.26468 | 28.74033 | 316 ft | 2 kts | 53° |
| 2026-05-04 21:44 | 41.26456 | 28.74021 | 316 ft | 2 kts | 0° |
| 2026-05-04 21:44 | 41.26463 | 28.74021 | 317 ft | 2 kts | 0° |
| 2026-05-04 21:44 | 41.26476 | 28.74021 | 316 ft | 0 kts | 0° |
| 2026-05-04 21:48 | 41.26528 | 28.74021 | 319 ft | 14 kts | 360° |
| 2026-05-04 21:49 | 41.26602 | 28.74020 | 319 ft | 17 kts | 359° |
| 2026-05-04 21:49 | 41.26742 | 28.74017 | 319 ft | 22 kts | 359° |
| 2026-05-04 21:49 | 41.26899 | 28.74014 | 319 ft | 23 kts | 359° |
| 2026-05-04 21:49 | 41.27037 | 28.73985 | 317 ft | 18 kts | 312° |
| 2026-05-04 21:50 | 41.27050 | 28.73824 | 316 ft | 19 kts | 269° |
| 2026-05-04 21:50 | 41.27047 | 28.73647 | 316 ft | 20 kts | 268° |
| 2026-05-04 21:50 | 41.27044 | 28.73458 | 316 ft | 21 kts | 269° |
| 2026-05-04 21:50 | 41.27042 | 28.73258 | 316 ft | 22 kts | 269° |
| 2026-05-04 21:51 | 41.27037 | 28.73048 | 313 ft | 21 kts | 257° |
| 2026-05-04 21:51 | 41.26923 | 28.72986 | 316 ft | 19 kts | 176° |
| 2026-05-04 21:51 | 41.26784 | 28.72991 | 315 ft | 21 kts | 179° |
| 2026-05-04 21:51 | 41.26636 | 28.72995 | 316 ft | 22 kts | 179° |
| 2026-05-04 21:52 | 41.26479 | 28.72999 | 317 ft | 23 kts | 179° |
| 2026-05-04 21:52 | 41.26383 | 28.73000 | 318 ft | 9 kts | 179° |
| 2026-05-04 21:52 | 41.26302 | 28.73001 | 318 ft | 15 kts | 179° |
| 2026-05-04 21:52 | 41.26220 | 28.72938 | 319 ft | 16 kts | 253° |
| 2026-05-04 21:53 | 41.26215 | 28.72780 | 320 ft | 19 kts | 270° |
| 2026-05-04 21:53 | 41.26214 | 28.72586 | 320 ft | 20 kts | 270° |
| 2026-05-04 21:53 | 41.26216 | 28.72556 | 320 ft | 0 kts | 284° |
| 2026-05-04 21:53 | 41.26224 | 28.72544 | 319 ft | 5 kts | 315° |
| 2026-05-04 21:54 | 41.26299 | 28.72524 | 320 ft | 17 kts | 356° |
| 2026-05-04 21:54 | 41.26615 | 28.72516 | 318 ft | 84 kts | 359° |
| 2026-05-04 21:54 | 41.27462 | 28.72499 | 296 ft | 158 kts | 359° |
| 2026-05-04 21:54 | 41.28743 | 28.72475 | 544 ft | 201 kts | 357° |
| 2026-05-04 21:55 | 41.30191 | 28.72426 | 1416 ft | 211 kts | 358° |
| 2026-05-04 21:55 | 41.31738 | 28.72422 | 2208 ft | 231 kts | 0° |
| 2026-05-04 21:55 | 41.33353 | 28.72452 | 2934 ft | 231 kts | 1° |
| 2026-05-04 21:55 | 41.34962 | 28.72481 | 3616 ft | 232 kts | 1° |
| 2026-05-04 21:56 | 41.36563 | 28.72504 | 4253 ft | 234 kts | 1° |
| 2026-05-04 21:56 | 41.38190 | 28.72377 | 4874 ft | 236 kts | 351° |
| 2026-05-04 21:56 | 41.39746 | 28.71626 | 5519 ft | 240 kts | 339° |
| 2026-05-04 21:56 | 41.41256 | 28.70658 | 6155 ft | 243 kts | 339° |
| 2026-05-04 21:57 | 41.42781 | 28.69663 | 6792 ft | 244 kts | 339° |
| 2026-05-04 21:57 | 41.44319 | 28.68669 | 7416 ft | 247 kts | 339° |
| 2026-05-04 21:57 | 41.45872 | 28.67670 | 8055 ft | 249 kts | 339° |
| 2026-05-04 21:57 | 41.47446 | 28.66661 | 8705 ft | 252 kts | 339° |
| 2026-05-04 21:58 | 41.49033 | 28.65644 | 9369 ft | 254 kts | 339° |
| 2026-05-04 21:58 | 41.50638 | 28.64616 | 10020 ft | 257 kts | 339° |
| 2026-05-04 21:58 | 41.52283 | 28.63566 | 10384 ft | 270 kts | 339° |
| 2026-05-04 21:58 | 41.54055 | 28.62539 | 10605 ft | 285 kts | 346° |
| 2026-05-04 21:59 | 41.56043 | 28.62137 | 10823 ft | 296 kts | 5° |
| 2026-05-04 21:59 | 41.58071 | 28.62815 | 11044 ft | 310 kts | 26° |
| 2026-05-04 21:59 | 41.59791 | 28.64626 | 11435 ft | 323 kts | 48° |
| 2026-05-04 21:59 | 41.61026 | 28.67179 | 12003 ft | 330 kts | 55° |
| 2026-05-04 22:00 | 41.62230 | 28.69808 | 12586 ft | 333 kts | 54° |
| 2026-05-04 22:00 | 41.63469 | 28.72443 | 13185 ft | 336 kts | 54° |
| 2026-05-04 22:00 | 41.64727 | 28.75089 | 13734 ft | 339 kts | 54° |
| 2026-05-04 22:00 | 41.66000 | 28.77756 | 13951 ft | 340 kts | 54° |
| 2026-05-04 22:01 | 41.67262 | 28.80392 | 13987 ft | 342 kts | 54° |
| 2026-05-04 22:01 | 41.68546 | 28.83074 | 13991 ft | 343 kts | 54° |
| 2026-05-04 22:01 | 41.69832 | 28.85760 | 13987 ft | 343 kts | 54° |
| 2026-05-04 22:01 | 41.71118 | 28.88445 | 13987 ft | 343 kts | 54° |
| 2026-05-04 22:02 | 41.72406 | 28.91138 | 13986 ft | 343 kts | 54° |
| 2026-05-04 22:02 | 41.73609 | 28.93903 | 13992 ft | 345 kts | 60° |
| 2026-05-04 22:02 | 41.74651 | 28.96813 | 14223 ft | 349 kts | 62° |
| 2026-05-04 22:02 | 41.75663 | 28.99749 | 14781 ft | 350 kts | 62° |
| 2026-05-04 22:03 | 41.76690 | 29.02732 | 15354 ft | 351 kts | 62° |
| 2026-05-04 22:03 | 41.77719 | 29.05717 | 15873 ft | 354 kts | 62° |
| 2026-05-04 22:03 | 41.78754 | 29.08718 | 16397 ft | 356 kts | 62° |
| 2026-05-04 22:03 | 41.79796 | 29.11741 | 16910 ft | 359 kts | 62° |
| 2026-05-04 22:04 | 41.80845 | 29.14788 | 17425 ft | 361 kts | 62° |
| 2026-05-04 22:04 | 41.81902 | 29.17860 | 17928 ft | 364 kts | 62° |
| 2026-05-04 22:04 | 41.82965 | 29.20951 | 18431 ft | 366 kts | 62° |
| 2026-05-04 22:04 | 41.84033 | 29.24063 | 18896 ft | 369 kts | 62° |
| 2026-05-04 22:05 | 41.85108 | 29.27198 | 19351 ft | 371 kts | 62° |
| 2026-05-04 22:05 | 41.86187 | 29.30350 | 19844 ft | 373 kts | 62° |
| 2026-05-04 22:05 | 41.87271 | 29.33518 | 20340 ft | 375 kts | 62° |
| 2026-05-04 22:05 | 41.88361 | 29.36705 | 20859 ft | 377 kts | 62° |
| 2026-05-04 22:06 | 41.89457 | 29.39917 | 21335 ft | 379 kts | 62° |
| 2026-05-04 22:06 | 41.90498 | 29.43186 | 21832 ft | 384 kts | 65° |
| 2026-05-04 22:06 | 41.91273 | 29.46639 | 22344 ft | 389 kts | 70° |
| 2026-05-04 22:06 | 41.91929 | 29.50179 | 22819 ft | 392 kts | 71° |
| 2026-05-04 22:07 | 41.92574 | 29.53744 | 23284 ft | 395 kts | 71° |
| 2026-05-04 22:07 | 41.93227 | 29.57345 | 23737 ft | 398 kts | 71° |
| 2026-05-04 22:07 | 41.93884 | 29.60961 | 24134 ft | 400 kts | 71° |
| 2026-05-04 22:07 | 41.94547 | 29.64611 | 24529 ft | 403 kts | 71° |
| 2026-05-04 22:08 | 41.95213 | 29.68279 | 24907 ft | 406 kts | 71° |
| 2026-05-04 22:08 | 41.95883 | 29.71976 | 25306 ft | 408 kts | 71° |
| 2026-05-04 22:08 | 41.96555 | 29.75692 | 25707 ft | 411 kts | 71° |
| 2026-05-04 22:08 | 41.97232 | 29.79439 | 26101 ft | 413 kts | 72° |
| 2026-05-04 22:09 | 41.97910 | 29.83199 | 26501 ft | 416 kts | 72° |
| 2026-05-04 22:09 | 41.98591 | 29.86987 | 26880 ft | 418 kts | 72° |
| 2026-05-04 22:09 | 41.99275 | 29.90797 | 27253 ft | 420 kts | 72° |
| 2026-05-04 22:09 | 41.99961 | 29.94626 | 27635 ft | 423 kts | 72° |
| 2026-05-04 22:10 | 42.00650 | 29.98478 | 28007 ft | 425 kts | 72° |
| 2026-05-04 22:10 | 42.01307 | 30.02374 | 28374 ft | 429 kts | 75° |
| 2026-05-04 22:10 | 42.01642 | 30.06395 | 28738 ft | 437 kts | 83° |
| 2026-05-04 22:10 | 42.01473 | 30.10516 | 29093 ft | 446 kts | 93° |
| 2026-05-04 22:11 | 42.00761 | 30.14608 | 29429 ft | 456 kts | 103° |
| 2026-05-04 22:11 | 41.99491 | 30.18557 | 29755 ft | 466 kts | 113° |
| 2026-05-04 22:11 | 41.97732 | 30.22258 | 30091 ft | 473 kts | 119° |
| 2026-05-04 22:11 | 41.95804 | 30.25858 | 30374 ft | 476 kts | 121° |
| 2026-05-04 22:12 | 41.93835 | 30.29377 | 30668 ft | 478 kts | 122° |
| 2026-05-04 22:12 | 41.91790 | 30.32979 | 30943 ft | 479 kts | 122° |
| 2026-05-04 22:12 | 41.89794 | 30.36498 | 31192 ft | 481 kts | 122° |
| 2026-05-04 22:12 | 41.87776 | 30.40075 | 31480 ft | 482 kts | 122° |
| 2026-05-04 22:13 | 41.85759 | 30.43671 | 31754 ft | 483 kts | 122° |
| 2026-05-04 22:13 | 41.83744 | 30.47278 | 31997 ft | 484 kts | 121° |
| 2026-05-04 22:13 | 41.81726 | 30.50902 | 32229 ft | 485 kts | 121° |
| 2026-05-04 22:13 | 41.79893 | 30.54675 | 32522 ft | 479 kts | 114° |
| 2026-05-04 22:14 | 41.78485 | 30.58677 | 32897 ft | 472 kts | 106° |
| 2026-05-04 22:14 | 41.77556 | 30.62852 | 33213 ft | 465 kts | 97° |
| 2026-05-04 22:14 | 41.77137 | 30.67109 | 33513 ft | 458 kts | 88° |
| 2026-05-04 22:14 | 41.77229 | 30.71346 | 33815 ft | 453 kts | 80° |
| 2026-05-04 22:15 | 41.77781 | 30.75480 | 34071 ft | 450 kts | 75° |
| 2026-05-04 22:15 | 41.78508 | 30.79564 | 34260 ft | 450 kts | 73° |
| 2026-05-04 22:15 | 41.79291 | 30.83632 | 34433 ft | 451 kts | 73° |
| 2026-05-04 22:15 | 41.80094 | 30.87705 | 34604 ft | 452 kts | 73° |
| 2026-05-04 22:16 | 41.80896 | 30.91781 | 34759 ft | 453 kts | 73° |
| 2026-05-04 22:16 | 41.81690 | 30.95877 | 34949 ft | 454 kts | 73° |
| 2026-05-04 22:16 | 41.82475 | 30.99986 | 35102 ft | 455 kts | 73° |
| 2026-05-04 22:16 | 41.83253 | 31.04105 | 35263 ft | 456 kts | 74° |
| 2026-05-04 22:17 | 41.84018 | 31.08182 | 35412 ft | 457 kts | 74° |
| 2026-05-04 22:17 | 41.84821 | 31.12311 | 35576 ft | 458 kts | 73° |
| 2026-05-04 22:17 | 41.85698 | 31.16474 | 35735 ft | 458 kts | 72° |
| 2026-05-04 22:17 | 41.86584 | 31.20534 | 35880 ft | 459 kts | 72° |
| 2026-05-04 22:18 | 41.87499 | 31.24705 | 36014 ft | 461 kts | 72° |
| 2026-05-04 22:18 | 41.88386 | 31.28775 | 36158 ft | 462 kts | 72° |
| 2026-05-04 22:18 | 41.89278 | 31.32916 | 36295 ft | 462 kts | 72° |
| 2026-05-04 22:18 | 41.90165 | 31.37072 | 36437 ft | 463 kts | 73° |
| 2026-05-04 22:19 | 41.91048 | 31.41240 | 36555 ft | 464 kts | 73° |
| 2026-05-04 22:19 | 41.91928 | 31.45412 | 36711 ft | 465 kts | 73° |
| 2026-05-04 22:19 | 41.92805 | 31.49588 | 36835 ft | 466 kts | 73° |
| 2026-05-04 22:20 | 41.94567 | 31.57994 | 36935 ft | 471 kts | 73° |
| 2026-05-04 22:20 | 41.96350 | 31.66506 | 36933 ft | 474 kts | 73° |
| 2026-05-04 22:21 | 41.98120 | 31.75019 | 36935 ft | 473 kts | 74° |
| 2026-05-04 22:21 | 41.99884 | 31.83541 | 36932 ft | 473 kts | 74° |
| 2026-05-04 22:22 | 42.01645 | 31.92063 | 36930 ft | 473 kts | 74° |
| 2026-05-04 22:22 | 42.03403 | 32.00594 | 36927 ft | 474 kts | 74° |
| 2026-05-04 22:23 | 42.05158 | 32.09139 | 36927 ft | 474 kts | 74° |
| 2026-05-04 22:23 | 42.06906 | 32.17687 | 36930 ft | 474 kts | 75° |
| 2026-05-04 22:24 | 42.08649 | 32.26247 | 36929 ft | 474 kts | 75° |
| 2026-05-04 22:24 | 42.10462 | 32.34719 | 36927 ft | 474 kts | 73° |
| 2026-05-04 22:25 | 42.12450 | 32.43183 | 36934 ft | 474 kts | 72° |
| 2026-05-04 22:25 | 42.14433 | 32.51646 | 36935 ft | 474 kts | 73° |
| 2026-05-04 22:26 | 42.16236 | 32.60194 | 36934 ft | 474 kts | 80° |
| 2026-05-04 22:26 | 42.16839 | 32.69036 | 36931 ft | 474 kts | 87° |
| 2026-05-04 22:27 | 42.17065 | 32.77919 | 36933 ft | 475 kts | 89° |
| 2026-05-04 22:27 | 42.17233 | 32.86809 | 36934 ft | 475 kts | 89° |
| 2026-05-04 22:28 | 42.17402 | 32.95706 | 36932 ft | 474 kts | 86° |
| 2026-05-04 22:28 | 42.17582 | 33.04595 | 36937 ft | 474 kts | 86° |
| 2026-05-04 22:29 | 42.17768 | 33.13482 | 36940 ft | 475 kts | 86° |
| 2026-05-04 22:29 | 42.17945 | 33.22385 | 36940 ft | 475 kts | 86° |
| 2026-05-04 22:30 | 42.18112 | 33.31279 | 36942 ft | 475 kts | 86° |
| 2026-05-04 22:30 | 42.18272 | 33.40181 | 36943 ft | 475 kts | 86° |
| 2026-05-04 22:31 | 42.18424 | 33.49094 | 36942 ft | 475 kts | 86° |
| 2026-05-04 22:31 | 42.18570 | 33.58002 | 36933 ft | 475 kts | 86° |
| 2026-05-04 22:32 | 42.18709 | 33.66909 | 36945 ft | 475 kts | 87° |
| 2026-05-04 22:32 | 42.18842 | 33.75827 | 36940 ft | 476 kts | 87° |
| 2026-05-04 22:33 | 42.18476 | 33.84742 | 36944 ft | 478 kts | 96° |
| 2026-05-04 22:33 | 42.17456 | 33.93627 | 36950 ft | 480 kts | 97° |
| 2026-05-04 22:34 | 42.16333 | 34.02499 | 36942 ft | 480 kts | 98° |
| 2026-05-04 22:34 | 42.15201 | 34.11376 | 36941 ft | 481 kts | 98° |
| 2026-05-04 22:35 | 42.14080 | 34.20211 | 36944 ft | 482 kts | 98° |
| 2026-05-04 22:35 | 42.12951 | 34.29114 | 36949 ft | 482 kts | 98° |
| 2026-05-04 22:36 | 42.11815 | 34.38023 | 36944 ft | 483 kts | 98° |
| 2026-05-04 22:36 | 42.10864 | 34.45434 | 36947 ft | 483 kts | 98° |
| 2026-05-04 22:37 | 42.09644 | 34.54403 | 36948 ft | 484 kts | 99° |
| 2026-05-04 22:37 | 42.08390 | 34.63308 | 36952 ft | 485 kts | 99° |
| 2026-05-04 22:38 | 42.07144 | 34.72165 | 36951 ft | 485 kts | 99° |
| 2026-05-04 22:38 | 42.05891 | 34.81089 | 36946 ft | 485 kts | 99° |
| 2026-05-04 22:39 | 42.04643 | 34.90028 | 36951 ft | 486 kts | 99° |
| 2026-05-04 22:39 | 42.03449 | 34.98971 | 36951 ft | 486 kts | 99° |
| 2026-05-04 22:40 | 42.02355 | 35.07940 | 36948 ft | 486 kts | 94° |
| 2026-05-04 22:40 | 42.01793 | 35.16995 | 36947 ft | 486 kts | 94° |
| 2026-05-04 22:41 | 42.01315 | 35.26052 | 36946 ft | 486 kts | 93° |
| 2026-05-04 22:41 | 42.00841 | 35.35121 | 36943 ft | 486 kts | 94° |
| 2026-05-04 22:42 | 42.00351 | 35.44196 | 36942 ft | 486 kts | 94° |
| 2026-05-04 22:42 | 41.99849 | 35.53263 | 36943 ft | 487 kts | 94° |
| 2026-05-04 22:43 | 41.99338 | 35.62332 | 36942 ft | 487 kts | 94° |
| 2026-05-04 22:43 | 41.98820 | 35.71412 | 36943 ft | 487 kts | 94° |
| 2026-05-04 22:44 | 41.98295 | 35.80487 | 36943 ft | 487 kts | 94° |
| 2026-05-04 22:44 | 41.97763 | 35.89564 | 36939 ft | 487 kts | 94° |
| 2026-05-04 22:45 | 41.97223 | 35.98647 | 36936 ft | 488 kts | 94° |
| 2026-05-04 22:45 | 41.96402 | 36.12226 | 36936 ft | 488 kts | 95° |
| 2026-05-04 22:46 | 41.95843 | 36.21328 | 36939 ft | 489 kts | 95° |
| 2026-05-04 22:46 | 41.95276 | 36.30432 | 36936 ft | 489 kts | 95° |
| 2026-05-04 22:47 | 41.94702 | 36.39533 | 36935 ft | 489 kts | 95° |
| 2026-05-04 22:47 | 41.94120 | 36.48646 | 36934 ft | 490 kts | 95° |
| 2026-05-04 22:48 | 41.93531 | 36.57759 | 36937 ft | 490 kts | 95° |
| 2026-05-04 22:48 | 41.92934 | 36.66885 | 36932 ft | 491 kts | 95° |
| 2026-05-04 22:49 | 41.92329 | 36.76009 | 36933 ft | 491 kts | 95° |
| 2026-05-04 22:49 | 41.91716 | 36.85150 | 36930 ft | 491 kts | 95° |
| 2026-05-04 22:50 | 41.91097 | 36.94284 | 36932 ft | 492 kts | 96° |
| 2026-05-04 22:50 | 41.90473 | 37.03367 | 36928 ft | 492 kts | 96° |
| 2026-05-04 22:51 | 41.90064 | 37.12533 | 36930 ft | 493 kts | 91° |
| 2026-05-04 22:51 | 41.90033 | 37.21739 | 36927 ft | 493 kts | 91° |
| 2026-05-04 22:52 | 41.89990 | 37.30939 | 36927 ft | 493 kts | 91° |
| 2026-05-04 22:52 | 41.89872 | 37.40145 | 36928 ft | 493 kts | 92° |
| 2026-05-04 22:53 | 41.89716 | 37.49353 | 36926 ft | 494 kts | 92° |
| 2026-05-04 22:53 | 41.89549 | 37.58572 | 36924 ft | 494 kts | 92° |
| 2026-05-04 22:54 | 41.89377 | 37.67789 | 36921 ft | 494 kts | 92° |
| 2026-05-04 22:54 | 41.89200 | 37.77007 | 36924 ft | 494 kts | 92° |
| 2026-05-04 22:55 | 41.89015 | 37.86241 | 36920 ft | 495 kts | 93° |
| 2026-05-04 22:55 | 41.88823 | 37.95461 | 36919 ft | 495 kts | 93° |
| 2026-05-04 22:56 | 41.88624 | 38.04700 | 36914 ft | 495 kts | 93° |
| 2026-05-04 22:56 | 41.88419 | 38.13880 | 36918 ft | 496 kts | 93° |
| 2026-05-04 22:57 | 41.88204 | 38.23130 | 36917 ft | 496 kts | 93° |
| 2026-05-04 22:57 | 41.87983 | 38.32369 | 36912 ft | 496 kts | 93° |
| 2026-05-04 22:58 | 41.87753 | 38.41622 | 36918 ft | 496 kts | 94° |
| 2026-05-04 22:58 | 41.87514 | 38.50885 | 36910 ft | 497 kts | 94° |
| 2026-05-04 22:59 | 41.87269 | 38.60156 | 36908 ft | 497 kts | 94° |
| 2026-05-04 22:59 | 41.87016 | 38.69433 | 36910 ft | 498 kts | 94° |
| 2026-05-04 23:00 | 41.86756 | 38.78715 | 36914 ft | 498 kts | 94° |
| 2026-05-04 23:00 | 41.86489 | 38.88000 | 36907 ft | 498 kts | 94° |
| 2026-05-04 23:01 | 41.86213 | 38.97286 | 36912 ft | 498 kts | 94° |
| 2026-05-04 23:01 | 41.85930 | 39.06573 | 36904 ft | 499 kts | 94° |
| 2026-05-04 23:02 | 41.85640 | 39.15869 | 36912 ft | 499 kts | 94° |
| 2026-05-04 23:02 | 41.85341 | 39.25168 | 36907 ft | 499 kts | 94° |
| 2026-05-04 23:03 | 41.85035 | 39.34473 | 36907 ft | 499 kts | 94° |
| 2026-05-04 23:03 | 41.84722 | 39.43765 | 36907 ft | 499 kts | 94° |
| 2026-05-04 23:04 | 41.84403 | 39.53010 | 36908 ft | 499 kts | 94° |
| 2026-05-04 23:04 | 41.84076 | 39.62318 | 36907 ft | 499 kts | 94° |
| 2026-05-04 23:05 | 41.83739 | 39.71637 | 36901 ft | 503 kts | 95° |
| 2026-05-04 23:05 | 41.83391 | 39.81060 | 36902 ft | 508 kts | 95° |
| 2026-05-04 23:06 | 41.83033 | 39.90553 | 36904 ft | 512 kts | 95° |
| 2026-05-04 23:06 | 41.82666 | 40.00107 | 36905 ft | 514 kts | 95° |
| 2026-05-04 23:07 | 41.82290 | 40.09677 | 36904 ft | 515 kts | 95° |
| 2026-05-04 23:07 | 41.81906 | 40.19275 | 36901 ft | 515 kts | 95° |
| 2026-05-04 23:08 | 41.81510 | 40.28874 | 36900 ft | 516 kts | 95° |
| 2026-05-04 23:08 | 41.81107 | 40.38446 | 36907 ft | 516 kts | 95° |
| 2026-05-04 23:09 | 41.80696 | 40.48049 | 36906 ft | 517 kts | 95° |
| 2026-05-04 23:09 | 41.80275 | 40.57687 | 36903 ft | 517 kts | 96° |
| 2026-05-04 23:10 | 41.80245 | 40.67325 | 36906 ft | 520 kts | 85° |
| 2026-05-04 23:10 | 41.81268 | 40.76937 | 36904 ft | 522 kts | 83° |
| 2026-05-04 23:11 | 41.82461 | 40.86527 | 36903 ft | 522 kts | 83° |
| 2026-05-04 23:11 | 41.83663 | 40.96113 | 36909 ft | 522 kts | 83° |
| 2026-05-04 23:12 | 41.84843 | 41.05749 | 36915 ft | 522 kts | 83° |
| 2026-05-04 23:12 | 41.86002 | 41.15367 | 36914 ft | 522 kts | 83° |
| 2026-05-04 23:13 | 41.87149 | 41.24984 | 36910 ft | 522 kts | 83° |
| 2026-05-04 23:13 | 41.88282 | 41.34547 | 36907 ft | 522 kts | 83° |
| 2026-05-04 23:14 | 41.89414 | 41.44175 | 36906 ft | 523 kts | 83° |
| 2026-05-04 23:14 | 41.90540 | 41.53810 | 36904 ft | 523 kts | 83° |
| 2026-05-04 23:15 | 41.91657 | 41.63450 | 36901 ft | 523 kts | 84° |
| 2026-05-04 23:15 | 41.92767 | 41.73096 | 36898 ft | 523 kts | 84° |
| 2026-05-04 23:16 | 41.93869 | 41.82744 | 36893 ft | 523 kts | 84° |
| 2026-05-04 23:16 | 41.94963 | 41.92401 | 36889 ft | 523 kts | 84° |
| 2026-05-04 23:17 | 41.96048 | 42.02056 | 36882 ft | 523 kts | 84° |
| 2026-05-04 23:17 | 41.97127 | 42.11725 | 36878 ft | 523 kts | 84° |
| 2026-05-04 23:18 | 41.98198 | 42.21408 | 36872 ft | 523 kts | 84° |
| 2026-05-04 23:18 | 41.99262 | 42.31089 | 36862 ft | 524 kts | 85° |
| 2026-05-04 23:19 | 42.00311 | 42.40717 | 36854 ft | 524 kts | 85° |
| 2026-05-04 23:19 | 42.01357 | 42.50403 | 36862 ft | 524 kts | 85° |
| 2026-05-04 23:20 | 42.02398 | 42.60106 | 36855 ft | 524 kts | 85° |
| 2026-05-04 23:20 | 42.03429 | 42.69822 | 36859 ft | 525 kts | 85° |
| 2026-05-04 23:21 | 42.04454 | 42.79552 | 36857 ft | 525 kts | 85° |
| 2026-05-04 23:21 | 42.05471 | 42.89292 | 36869 ft | 525 kts | 85° |
| 2026-05-04 23:22 | 42.05480 | 42.99007 | 36869 ft | 515 kts | 103° |
| 2026-05-04 23:22 | 42.03260 | 43.08010 | 36869 ft | 505 kts | 120° |
| 2026-05-04 23:23 | 42.00054 | 43.16397 | 36862 ft | 504 kts | 122° |
| 2026-05-04 23:23 | 41.96721 | 43.24673 | 36875 ft | 503 kts | 122° |
| 2026-05-04 23:24 | 41.93956 | 43.31569 | 36865 ft | 504 kts | 122° |
| 2026-05-04 23:24 | 41.90662 | 43.39860 | 36876 ft | 503 kts | 122° |
| 2026-05-04 23:25 | 41.87371 | 43.48160 | 36867 ft | 504 kts | 122° |
| 2026-05-04 23:25 | 41.84071 | 43.56455 | 36869 ft | 504 kts | 122° |
| 2026-05-04 23:26 | 41.80764 | 43.64750 | 36868 ft | 505 kts | 122° |
| 2026-05-04 23:26 | 41.77440 | 43.73052 | 36867 ft | 506 kts | 122° |
| 2026-05-04 23:27 | 41.74108 | 43.81351 | 36868 ft | 506 kts | 122° |
| 2026-05-04 23:27 | 41.70769 | 43.89647 | 36866 ft | 506 kts | 122° |
| 2026-05-04 23:28 | 41.67425 | 43.97932 | 36878 ft | 506 kts | 123° |
| 2026-05-04 23:28 | 41.64072 | 44.06216 | 36872 ft | 506 kts | 123° |
| 2026-05-04 23:29 | 41.60715 | 44.14487 | 36877 ft | 507 kts | 123° |
| 2026-05-04 23:29 | 41.57677 | 44.23016 | 36881 ft | 514 kts | 112° |
| 2026-05-04 23:30 | 41.56224 | 44.32372 | 36885 ft | 521 kts | 103° |
| 2026-05-04 23:30 | 41.55270 | 44.41976 | 36887 ft | 523 kts | 101° |
| 2026-05-04 23:31 | 41.54371 | 44.51608 | 36885 ft | 523 kts | 102° |
| 2026-05-04 23:31 | 41.53436 | 44.61238 | 36878 ft | 523 kts | 102° |
| 2026-05-04 23:32 | 41.52468 | 44.70868 | 36872 ft | 524 kts | 102° |
| 2026-05-04 23:32 | 41.51486 | 44.80495 | 36863 ft | 524 kts | 102° |
| 2026-05-04 23:33 | 41.50495 | 44.90137 | 36861 ft | 525 kts | 103° |
| 2026-05-04 23:33 | 41.49496 | 44.99785 | 36861 ft | 525 kts | 103° |
| 2026-05-04 23:34 | 41.48489 | 45.09434 | 36853 ft | 526 kts | 103° |
| 2026-05-04 23:34 | 41.47469 | 45.19108 | 36853 ft | 526 kts | 103° |
| 2026-05-04 23:35 | 41.45501 | 45.28360 | 36851 ft | 513 kts | 121° |
| 2026-05-04 23:35 | 41.41645 | 45.36138 | 36852 ft | 499 kts | 136° |
| 2026-05-04 23:36 | 41.36978 | 45.42972 | 36848 ft | 498 kts | 139° |
| 2026-05-04 23:36 | 41.32203 | 45.49655 | 36844 ft | 498 kts | 139° |
| 2026-05-04 23:37 | 41.27464 | 45.56315 | 36846 ft | 499 kts | 139° |
| 2026-05-04 23:37 | 41.22843 | 45.63224 | 36845 ft | 506 kts | 132° |
| 2026-05-04 23:38 | 41.19486 | 45.71563 | 36854 ft | 520 kts | 117° |
| 2026-05-04 23:38 | 41.17003 | 45.80615 | 36855 ft | 523 kts | 115° |
| 2026-05-04 23:39 | 41.14651 | 45.89769 | 36863 ft | 524 kts | 115° |
| 2026-05-04 23:39 | 41.12273 | 45.98908 | 36856 ft | 524 kts | 116° |
| 2026-05-04 23:40 | 41.09860 | 46.08014 | 36860 ft | 524 kts | 116° |
| 2026-05-04 23:40 | 41.07419 | 46.17138 | 36864 ft | 524 kts | 116° |
| 2026-05-04 23:41 | 41.04991 | 46.26257 | 36868 ft | 527 kts | 114° |
| 2026-05-04 23:41 | 41.03513 | 46.35877 | 36874 ft | 537 kts | 104° |
| 2026-05-04 23:42 | 41.02549 | 46.45721 | 36872 ft | 540 kts | 103° |
| 2026-05-04 23:42 | 41.01659 | 46.55596 | 36870 ft | 540 kts | 103° |
| 2026-05-04 23:43 | 41.00747 | 46.65463 | 36870 ft | 540 kts | 104° |
| 2026-05-04 23:43 | 40.99806 | 46.75334 | 36872 ft | 540 kts | 104° |
| 2026-05-04 23:44 | 40.98849 | 46.85209 | 36866 ft | 541 kts | 104° |
| 2026-05-04 23:44 | 40.97882 | 46.95088 | 36864 ft | 541 kts | 104° |
| 2026-05-04 23:45 | 40.96914 | 47.04900 | 36867 ft | 541 kts | 104° |
| 2026-05-04 23:45 | 40.95931 | 47.14769 | 36864 ft | 542 kts | 104° |
| 2026-05-04 23:46 | 40.94932 | 47.24720 | 36867 ft | 542 kts | 104° |
| 2026-05-04 23:46 | 40.93938 | 47.34542 | 36857 ft | 542 kts | 104° |
| 2026-05-04 23:47 | 40.92929 | 47.44418 | 36852 ft | 542 kts | 104° |
| 2026-05-04 23:47 | 40.91910 | 47.54309 | 36851 ft | 542 kts | 104° |
| 2026-05-04 23:48 | 40.90884 | 47.64186 | 36857 ft | 543 kts | 105° |
| 2026-05-04 23:48 | 40.89847 | 47.74080 | 36858 ft | 543 kts | 105° |
| 2026-05-04 23:49 | 40.88800 | 47.83977 | 36855 ft | 545 kts | 105° |
| 2026-05-04 23:49 | 40.87741 | 47.93908 | 36855 ft | 546 kts | 105° |
| 2026-05-04 23:50 | 40.86672 | 48.03852 | 36856 ft | 547 kts | 105° |
| 2026-05-04 23:50 | 40.85594 | 48.13806 | 36851 ft | 548 kts | 105° |
| 2026-05-04 23:51 | 40.84505 | 48.23777 | 36847 ft | 549 kts | 105° |
| 2026-05-04 23:51 | 40.83406 | 48.33754 | 36843 ft | 549 kts | 105° |
| 2026-05-04 23:52 | 40.82296 | 48.43724 | 36844 ft | 549 kts | 105° |
| 2026-05-04 23:52 | 40.81178 | 48.53703 | 36838 ft | 550 kts | 105° |
| 2026-05-04 23:53 | 40.80055 | 48.63685 | 36844 ft | 550 kts | 105° |
| 2026-05-04 23:53 | 40.78922 | 48.73654 | 36848 ft | 549 kts | 105° |
| 2026-05-04 23:54 | 40.77780 | 48.83616 | 36852 ft | 548 kts | 105° |
| 2026-05-04 23:54 | 40.76630 | 48.93556 | 36864 ft | 548 kts | 105° |
| 2026-05-04 23:55 | 40.75482 | 49.03420 | 36863 ft | 547 kts | 105° |
| 2026-05-04 23:56 | 40.73733 | 49.18285 | 36865 ft | 546 kts | 104° |
| 2026-05-04 23:56 | 40.72563 | 49.28168 | 36875 ft | 546 kts | 104° |
| 2026-05-04 23:57 | 40.71397 | 49.38045 | 36877 ft | 545 kts | 104° |
| 2026-05-04 23:57 | 40.70227 | 49.47904 | 36877 ft | 544 kts | 104° |
| 2026-05-04 23:58 | 40.69050 | 49.57756 | 36877 ft | 544 kts | 104° |
| 2026-05-04 23:58 | 40.67855 | 49.67608 | 36876 ft | 545 kts | 104° |
| 2026-05-04 23:59 | 40.66648 | 49.77466 | 36864 ft | 545 kts | 104° |
| 2026-05-04 23:59 | 40.65436 | 49.87313 | 36873 ft | 545 kts | 104° |
| 2026-05-05 00:00 | 40.64225 | 49.97090 | 36860 ft | 545 kts | 104° |
| 2026-05-05 00:00 | 40.62997 | 50.06934 | 36855 ft | 545 kts | 104° |
| 2026-05-05 00:01 | 40.61760 | 50.16784 | 36858 ft | 545 kts | 104° |
| 2026-05-05 00:01 | 40.60514 | 50.26631 | 36856 ft | 546 kts | 104° |
| 2026-05-05 00:02 | 40.59259 | 50.36477 | 36858 ft | 546 kts | 104° |
| 2026-05-05 00:02 | 40.57994 | 50.46331 | 36862 ft | 546 kts | 104° |
| 2026-05-05 00:03 | 40.56722 | 50.56175 | 36866 ft | 546 kts | 104° |
| 2026-05-05 00:03 | 40.55443 | 50.66009 | 36870 ft | 546 kts | 104° |
| 2026-05-05 00:04 | 40.54153 | 50.75858 | 36875 ft | 546 kts | 104° |
| 2026-05-05 00:04 | 40.52855 | 50.85702 | 36876 ft | 546 kts | 104° |
| 2026-05-05 00:05 | 40.51571 | 50.95542 | 36879 ft | 547 kts | 103° |
| 2026-05-05 00:05 | 40.50642 | 51.05479 | 36880 ft | 549 kts | 100° |
| 2026-05-05 00:06 | 40.49831 | 51.15461 | 36881 ft | 549 kts | 101° |
| 2026-05-05 00:06 | 40.48963 | 51.25425 | 36881 ft | 549 kts | 101° |
| 2026-05-05 00:07 | 40.48044 | 51.35385 | 36881 ft | 549 kts | 101° |
| 2026-05-05 00:07 | 40.47105 | 51.45323 | 36881 ft | 549 kts | 101° |
| 2026-05-05 00:08 | 40.45716 | 51.55125 | 36877 ft | 544 kts | 107° |
| 2026-05-05 00:08 | 40.43985 | 51.64794 | 36876 ft | 544 kts | 108° |
| 2026-05-05 00:09 | 40.42196 | 51.74445 | 36875 ft | 544 kts | 108° |
| 2026-05-05 00:09 | 40.40400 | 51.84105 | 36871 ft | 545 kts | 108° |
| 2026-05-05 00:10 | 40.38911 | 51.92125 | 36870 ft | 545 kts | 108° |
| 2026-05-05 00:10 | 40.37112 | 52.01791 | 36870 ft | 545 kts | 108° |
| 2026-05-05 00:11 | 40.35305 | 52.11459 | 36864 ft | 546 kts | 108° |
| 2026-05-05 00:11 | 40.33489 | 52.21120 | 36865 ft | 546 kts | 108° |
| 2026-05-05 00:12 | 40.31663 | 52.30790 | 36863 ft | 547 kts | 108° |
| 2026-05-05 00:12 | 40.29827 | 52.40459 | 36859 ft | 547 kts | 108° |
| 2026-05-05 00:13 | 40.27980 | 52.50141 | 36855 ft | 548 kts | 108° |
| 2026-05-05 00:13 | 40.25583 | 52.59516 | 36855 ft | 538 kts | 122° |
| 2026-05-05 00:14 | 40.21694 | 52.67780 | 36847 ft | 532 kts | 130° |
| 2026-05-05 00:14 | 40.17502 | 52.75746 | 36854 ft | 532 kts | 131° |
| 2026-05-05 00:15 | 40.13265 | 52.83676 | 36852 ft | 532 kts | 131° |
| 2026-05-05 00:15 | 40.09047 | 52.91630 | 36855 ft | 534 kts | 130° |
| 2026-05-05 00:16 | 40.05787 | 53.00374 | 36855 ft | 548 kts | 111° |
| 2026-05-05 00:16 | 40.04997 | 53.05262 | 36859 ft | 555 kts | 99° |
| 2026-05-05 00:16 | 40.04898 | 53.10306 | 36862 ft | 559 kts | 88° |
| 2026-05-05 00:17 | 40.05690 | 53.20433 | 36852 ft | 562 kts | 84° |
| 2026-05-05 00:17 | 40.06726 | 53.30549 | 36848 ft | 562 kts | 84° |
| 2026-05-05 00:18 | 40.07729 | 53.40663 | 36844 ft | 562 kts | 84° |
| 2026-05-05 00:18 | 40.08672 | 53.50784 | 36845 ft | 561 kts | 85° |
| 2026-05-05 00:19 | 40.09585 | 53.60897 | 36845 ft | 560 kts | 85° |
| 2026-05-05 00:19 | 40.10486 | 53.71005 | 36850 ft | 560 kts | 85° |
| 2026-05-05 00:20 | 40.11381 | 53.81101 | 36846 ft | 560 kts | 85° |
| 2026-05-05 00:20 | 40.12269 | 53.91204 | 36843 ft | 559 kts | 85° |
| 2026-05-05 00:21 | 40.13147 | 54.01301 | 36846 ft | 559 kts | 85° |
| 2026-05-05 00:21 | 40.14016 | 54.11391 | 36853 ft | 559 kts | 85° |
| 2026-05-05 00:22 | 40.14876 | 54.21483 | 36850 ft | 559 kts | 85° |
| 2026-05-05 00:22 | 40.15721 | 54.31513 | 36856 ft | 558 kts | 85° |
| 2026-05-05 00:23 | 40.16563 | 54.41600 | 36854 ft | 558 kts | 85° |
| 2026-05-05 00:23 | 40.17397 | 54.51701 | 36860 ft | 559 kts | 85° |
| 2026-05-05 00:24 | 40.18221 | 54.61799 | 36859 ft | 559 kts | 85° |
| 2026-05-05 00:24 | 40.19038 | 54.71914 | 36855 ft | 559 kts | 85° |
| 2026-05-05 00:25 | 40.19846 | 54.82030 | 36859 ft | 560 kts | 85° |
| 2026-05-05 00:25 | 40.20646 | 54.92161 | 36857 ft | 560 kts | 85° |
| 2026-05-05 00:26 | 40.21437 | 55.02290 | 36853 ft | 560 kts | 85° |
| 2026-05-05 00:26 | 40.22220 | 55.12430 | 36854 ft | 560 kts | 85° |
| 2026-05-05 00:27 | 40.22995 | 55.22580 | 36847 ft | 560 kts | 85° |
| 2026-05-05 00:27 | 40.23761 | 55.32732 | 36850 ft | 561 kts | 85° |
| 2026-05-05 00:28 | 40.24517 | 55.42884 | 36844 ft | 561 kts | 85° |
| 2026-05-05 00:28 | 40.25266 | 55.53046 | 36850 ft | 561 kts | 85° |
| 2026-05-05 00:29 | 40.26005 | 55.63202 | 36840 ft | 561 kts | 85° |
| 2026-05-05 00:29 | 40.26860 | 55.73348 | 36858 ft | 561 kts | 79° |
| 2026-05-05 00:30 | 40.29116 | 55.83102 | 36839 ft | 560 kts | 70° |
| 2026-05-05 00:30 | 40.31798 | 55.92675 | 36857 ft | 560 kts | 68° |
| 2026-05-05 00:31 | 40.34535 | 56.02216 | 36854 ft | 559 kts | 68° |
| 2026-05-05 00:31 | 40.37245 | 56.11780 | 36854 ft | 559 kts | 69° |
| 2026-05-05 00:32 | 40.39923 | 56.21348 | 36852 ft | 558 kts | 69° |
| 2026-05-05 00:32 | 40.42583 | 56.30909 | 36854 ft | 558 kts | 69° |
| 2026-05-05 00:33 | 40.45234 | 56.40477 | 36855 ft | 557 kts | 69° |
| 2026-05-05 00:33 | 40.47861 | 56.49986 | 36853 ft | 557 kts | 69° |
| 2026-05-05 00:34 | 40.50495 | 56.59557 | 36857 ft | 557 kts | 69° |
| 2026-05-05 00:34 | 40.53121 | 56.69129 | 36856 ft | 557 kts | 69° |
| 2026-05-05 00:35 | 40.55738 | 56.78702 | 36859 ft | 556 kts | 69° |
| 2026-05-05 00:35 | 40.58344 | 56.88292 | 36862 ft | 556 kts | 69° |
| 2026-05-05 00:36 | 40.60941 | 56.97880 | 36857 ft | 556 kts | 69° |
| 2026-05-05 00:36 | 40.63530 | 57.07472 | 36862 ft | 556 kts | 69° |
| 2026-05-05 00:37 | 40.66111 | 57.17071 | 36858 ft | 556 kts | 69° |
| 2026-05-05 00:37 | 40.68676 | 57.26676 | 36860 ft | 555 kts | 69° |
| 2026-05-05 00:38 | 40.71229 | 57.36276 | 36867 ft | 555 kts | 69° |
| 2026-05-05 00:38 | 40.73777 | 57.45886 | 36865 ft | 555 kts | 69° |
| 2026-05-05 00:39 | 40.76313 | 57.55487 | 36865 ft | 554 kts | 69° |
| 2026-05-05 00:39 | 40.78824 | 57.65024 | 36864 ft | 554 kts | 69° |
| 2026-05-05 00:40 | 40.81495 | 57.74538 | 36865 ft | 553 kts | 68° |
| 2026-05-05 00:40 | 40.84244 | 57.84014 | 36867 ft | 552 kts | 68° |
| 2026-05-05 00:41 | 40.86961 | 57.93484 | 36867 ft | 551 kts | 68° |
| 2026-05-05 00:41 | 40.89649 | 58.02977 | 36868 ft | 551 kts | 68° |
| 2026-05-05 00:42 | 40.92320 | 58.12473 | 36873 ft | 551 kts | 68° |
| 2026-05-05 00:42 | 40.94981 | 58.21970 | 36878 ft | 551 kts | 68° |
| 2026-05-05 00:43 | 40.97637 | 58.31477 | 36876 ft | 550 kts | 68° |
| 2026-05-05 00:43 | 41.00280 | 58.40976 | 36880 ft | 550 kts | 68° |
| 2026-05-05 00:44 | 41.02918 | 58.50489 | 36881 ft | 550 kts | 68° |
| 2026-05-05 00:44 | 41.05545 | 58.60000 | 36880 ft | 549 kts | 68° |
| 2026-05-05 00:45 | 41.08162 | 58.69510 | 36882 ft | 549 kts | 68° |
| 2026-05-05 00:45 | 41.10769 | 58.79018 | 36885 ft | 548 kts | 68° |
| 2026-05-05 00:46 | 41.13362 | 58.88515 | 36883 ft | 548 kts | 68° |
| 2026-05-05 00:46 | 41.15948 | 58.98017 | 36888 ft | 547 kts | 68° |
| 2026-05-05 00:47 | 41.18520 | 59.07506 | 36893 ft | 546 kts | 69° |
| 2026-05-05 00:47 | 41.21085 | 59.17010 | 36893 ft | 546 kts | 69° |
| 2026-05-05 00:48 | 41.23624 | 59.26447 | 36878 ft | 546 kts | 69° |
| 2026-05-05 00:48 | 41.26168 | 59.35941 | 36899 ft | 546 kts | 69° |
| 2026-05-05 00:49 | 41.28706 | 59.45449 | 36900 ft | 545 kts | 69° |
| 2026-05-05 00:49 | 41.31233 | 59.54953 | 36885 ft | 545 kts | 69° |
| 2026-05-05 00:50 | 41.33753 | 59.64470 | 36894 ft | 545 kts | 69° |
| 2026-05-05 00:50 | 41.36211 | 59.74016 | 36889 ft | 545 kts | 70° |
| 2026-05-05 00:51 | 41.38519 | 59.83618 | 36893 ft | 544 kts | 71° |
| 2026-05-05 00:51 | 41.40814 | 59.93230 | 36896 ft | 544 kts | 70° |
| 2026-05-05 00:52 | 41.43119 | 60.02822 | 36897 ft | 544 kts | 70° |
| 2026-05-05 00:52 | 41.45428 | 60.12418 | 36898 ft | 543 kts | 70° |
| 2026-05-05 00:53 | 41.47727 | 60.22012 | 36904 ft | 543 kts | 71° |
| 2026-05-05 00:53 | 41.49998 | 60.31629 | 36904 ft | 543 kts | 71° |
| 2026-05-05 00:54 | 41.52249 | 60.41238 | 36909 ft | 543 kts | 71° |
| 2026-05-05 00:54 | 41.54496 | 60.50862 | 36910 ft | 543 kts | 71° |
| 2026-05-05 00:55 | 41.56735 | 60.60483 | 36909 ft | 543 kts | 71° |
| 2026-05-05 00:55 | 41.59001 | 60.70091 | 36911 ft | 542 kts | 69° |
| 2026-05-05 00:56 | 41.61076 | 60.77982 | 36908 ft | 541 kts | 68° |
| 2026-05-05 00:56 | 41.64042 | 60.88982 | 36911 ft | 541 kts | 68° |
| 2026-05-05 00:57 | 41.66547 | 60.98455 | 36914 ft | 541 kts | 69° |
| 2026-05-05 00:57 | 41.68622 | 61.06416 | 36920 ft | 541 kts | 69° |
| 2026-05-05 00:58 | 41.71067 | 61.15859 | 36922 ft | 540 kts | 69° |
| 2026-05-05 00:58 | 41.73519 | 61.25365 | 36925 ft | 540 kts | 69° |
| 2026-05-05 00:59 | 41.75965 | 61.34879 | 36927 ft | 540 kts | 69° |
| 2026-05-05 00:59 | 41.78407 | 61.44413 | 36930 ft | 541 kts | 69° |
| 2026-05-05 01:00 | 41.80836 | 61.53932 | 36932 ft | 541 kts | 69° |
| 2026-05-05 01:00 | 41.83263 | 61.63482 | 36935 ft | 541 kts | 69° |
| 2026-05-05 01:01 | 41.85681 | 61.73038 | 36940 ft | 541 kts | 69° |
| 2026-05-05 01:01 | 41.88085 | 61.82599 | 36943 ft | 541 kts | 69° |
| 2026-05-05 01:02 | 41.90477 | 61.92156 | 36941 ft | 540 kts | 69° |
| 2026-05-05 01:02 | 41.92860 | 62.01716 | 36948 ft | 539 kts | 69° |
| 2026-05-05 01:03 | 41.95232 | 62.11261 | 36951 ft | 539 kts | 69° |
| 2026-05-05 01:03 | 41.97602 | 62.20819 | 36953 ft | 538 kts | 70° |
| 2026-05-05 01:04 | 41.99954 | 62.30352 | 36953 ft | 537 kts | 70° |
| 2026-05-05 01:04 | 42.03464 | 62.44649 | 36959 ft | 536 kts | 70° |
| 2026-05-05 01:05 | 42.05792 | 62.54180 | 36961 ft | 536 kts | 70° |
| 2026-05-05 01:05 | 42.08110 | 62.63704 | 36962 ft | 535 kts | 70° |
| 2026-05-05 01:06 | 42.10405 | 62.73161 | 36966 ft | 535 kts | 70° |
| 2026-05-05 01:06 | 42.12700 | 62.82680 | 36969 ft | 534 kts | 70° |
| 2026-05-05 01:07 | 42.14988 | 62.92208 | 36973 ft | 534 kts | 70° |
| 2026-05-05 01:07 | 42.17265 | 63.01720 | 36975 ft | 533 kts | 70° |
| 2026-05-05 01:08 | 42.19539 | 63.11233 | 36977 ft | 533 kts | 70° |
| 2026-05-05 01:08 | 42.21805 | 63.20754 | 36981 ft | 532 kts | 70° |
| 2026-05-05 01:09 | 42.24057 | 63.30265 | 36983 ft | 532 kts | 70° |
| 2026-05-05 01:09 | 42.26299 | 63.39767 | 36986 ft | 531 kts | 70° |
| 2026-05-05 01:10 | 42.28531 | 63.49270 | 36985 ft | 531 kts | 71° |
| 2026-05-05 01:10 | 42.30754 | 63.58772 | 36990 ft | 530 kts | 71° |
| 2026-05-05 01:11 | 42.32966 | 63.68266 | 36991 ft | 529 kts | 71° |
| 2026-05-05 01:11 | 42.35167 | 63.77755 | 36990 ft | 529 kts | 71° |
| 2026-05-05 01:12 | 42.37358 | 63.87240 | 36989 ft | 528 kts | 71° |
| 2026-05-05 01:12 | 42.39538 | 63.96722 | 36995 ft | 527 kts | 71° |
| 2026-05-05 01:13 | 42.41701 | 64.06197 | 36993 ft | 527 kts | 71° |
| 2026-05-05 01:13 | 42.43817 | 64.15629 | 36994 ft | 527 kts | 72° |
| 2026-05-05 01:14 | 42.45932 | 64.25117 | 36995 ft | 526 kts | 72° |
| 2026-05-05 01:14 | 42.48058 | 64.34590 | 37001 ft | 526 kts | 72° |
| 2026-05-05 01:15 | 42.50189 | 64.44064 | 36998 ft | 525 kts | 72° |
| 2026-05-05 01:15 | 42.52309 | 64.53539 | 36997 ft | 525 kts | 72° |
| 2026-05-05 01:16 | 42.54417 | 64.63017 | 36997 ft | 525 kts | 72° |
| 2026-05-05 01:16 | 42.56511 | 64.72479 | 36992 ft | 524 kts | 72° |
| 2026-05-05 01:17 | 42.58599 | 64.81954 | 36999 ft | 524 kts | 72° |
| 2026-05-05 01:17 | 42.60675 | 64.91418 | 36992 ft | 523 kts | 72° |
| 2026-05-05 01:18 | 42.62741 | 65.00878 | 36990 ft | 522 kts | 72° |
| 2026-05-05 01:18 | 42.64799 | 65.10340 | 36996 ft | 522 kts | 72° |
| 2026-05-05 01:19 | 42.66846 | 65.19798 | 36996 ft | 521 kts | 72° |
| 2026-05-05 01:19 | 42.68883 | 65.29248 | 36988 ft | 521 kts | 72° |
| 2026-05-05 01:20 | 42.70911 | 65.38703 | 36997 ft | 521 kts | 72° |
| 2026-05-05 01:20 | 42.72918 | 65.48097 | 36989 ft | 520 kts | 72° |
| 2026-05-05 01:21 | 42.74930 | 65.57558 | 36999 ft | 520 kts | 73° |
| 2026-05-05 01:21 | 42.76933 | 65.67021 | 36994 ft | 520 kts | 73° |
| 2026-05-05 01:22 | 42.78925 | 65.76472 | 36999 ft | 520 kts | 73° |
| 2026-05-05 01:22 | 42.80907 | 65.85936 | 36993 ft | 520 kts | 73° |
| 2026-05-05 01:23 | 42.82885 | 65.95407 | 36989 ft | 520 kts | 73° |
| 2026-05-05 01:23 | 42.84855 | 66.04876 | 36991 ft | 519 kts | 73° |
| 2026-05-05 01:24 | 42.86815 | 66.14348 | 36989 ft | 519 kts | 73° |
| 2026-05-05 01:24 | 42.88748 | 66.23828 | 37006 ft | 519 kts | 73° |
| 2026-05-05 01:25 | 42.90668 | 66.33318 | 37001 ft | 519 kts | 73° |
| 2026-05-05 01:25 | 42.92583 | 66.42809 | 36992 ft | 519 kts | 73° |
| 2026-05-05 01:26 | 42.94493 | 66.52309 | 37000 ft | 519 kts | 73° |
| 2026-05-05 01:26 | 42.96400 | 66.61824 | 37022 ft | 520 kts | 73° |
| 2026-05-05 01:27 | 42.98316 | 66.71276 | 37044 ft | 521 kts | 73° |
| 2026-05-05 01:27 | 43.00250 | 66.80818 | 37064 ft | 521 kts | 73° |
| 2026-05-05 01:28 | 43.02151 | 66.90369 | 37090 ft | 521 kts | 73° |
| 2026-05-05 01:28 | 43.04028 | 66.99934 | 37121 ft | 521 kts | 73° |
| 2026-05-05 01:29 | 43.05898 | 67.09486 | 37146 ft | 521 kts | 73° |
| 2026-05-05 01:29 | 43.07766 | 67.19057 | 37158 ft | 521 kts | 73° |
| 2026-05-05 01:30 | 43.09626 | 67.28626 | 37184 ft | 521 kts | 73° |
| 2026-05-05 01:30 | 43.11481 | 67.38215 | 37201 ft | 520 kts | 73° |
| 2026-05-05 01:31 | 43.13323 | 67.47795 | 37221 ft | 521 kts | 74° |
| 2026-05-05 01:31 | 43.15160 | 67.57380 | 37230 ft | 521 kts | 74° |
| 2026-05-05 01:32 | 43.16994 | 67.66978 | 37261 ft | 520 kts | 74° |
| 2026-05-05 01:32 | 43.18813 | 67.76558 | 37286 ft | 520 kts | 74° |
| 2026-05-05 01:33 | 43.20626 | 67.86129 | 37329 ft | 519 kts | 74° |
| 2026-05-05 01:33 | 43.22428 | 67.95731 | 37340 ft | 519 kts | 74° |
| 2026-05-05 01:34 | 43.24216 | 68.05316 | 37364 ft | 519 kts | 74° |
| 2026-05-05 01:34 | 43.25999 | 68.14911 | 37385 ft | 518 kts | 74° |
| 2026-05-05 01:35 | 43.27760 | 68.24429 | 37405 ft | 518 kts | 74° |
| 2026-05-05 01:35 | 43.29524 | 68.34013 | 37431 ft | 518 kts | 74° |
| 2026-05-05 01:36 | 43.31112 | 68.43669 | 37451 ft | 518 kts | 78° |
| 2026-05-05 01:36 | 43.32195 | 68.53451 | 37464 ft | 519 kts | 80° |
| 2026-05-05 01:37 | 43.33189 | 68.63271 | 37479 ft | 519 kts | 82° |
| 2026-05-05 01:37 | 43.33971 | 68.73117 | 37504 ft | 519 kts | 82° |
| 2026-05-05 01:38 | 43.34737 | 68.82961 | 37534 ft | 518 kts | 82° |
| 2026-05-05 01:38 | 43.35544 | 68.92800 | 37558 ft | 518 kts | 82° |
| 2026-05-05 01:39 | 43.36365 | 69.02625 | 37582 ft | 517 kts | 82° |
| 2026-05-05 01:39 | 43.37181 | 69.12438 | 37597 ft | 517 kts | 82° |
| 2026-05-05 01:40 | 43.37996 | 69.22244 | 37635 ft | 516 kts | 82° |
| 2026-05-05 01:40 | 43.38849 | 69.32043 | 37658 ft | 516 kts | 82° |
| 2026-05-05 01:41 | 43.39701 | 69.41841 | 37683 ft | 515 kts | 82° |
| 2026-05-05 01:41 | 43.40537 | 69.51626 | 37703 ft | 515 kts | 82° |
| 2026-05-05 01:42 | 43.41361 | 69.61405 | 37726 ft | 515 kts | 82° |
| 2026-05-05 01:42 | 43.42174 | 69.71179 | 37752 ft | 514 kts | 82° |
| 2026-05-05 01:43 | 43.42847 | 69.79300 | 37781 ft | 514 kts | 82° |
| 2026-05-05 01:43 | 43.43819 | 69.90651 | 37808 ft | 513 kts | 82° |
| 2026-05-05 01:44 | 43.44652 | 70.00395 | 37817 ft | 513 kts | 82° |
| 2026-05-05 01:44 | 43.45340 | 70.08564 | 37832 ft | 513 kts | 82° |
| 2026-05-05 01:45 | 43.46149 | 70.18309 | 37839 ft | 513 kts | 82° |
| 2026-05-05 01:45 | 43.46945 | 70.27998 | 37866 ft | 512 kts | 82° |
| 2026-05-05 01:46 | 43.47741 | 70.37803 | 37878 ft | 512 kts | 82° |
| 2026-05-05 01:46 | 43.48519 | 70.47478 | 37882 ft | 512 kts | 82° |
| 2026-05-05 01:47 | 43.49294 | 70.57219 | 37893 ft | 511 kts | 82° |
| 2026-05-05 01:47 | 43.50060 | 70.66951 | 37899 ft | 511 kts | 82° |
| 2026-05-05 01:48 | 43.50818 | 70.76694 | 37906 ft | 511 kts | 82° |
| 2026-05-05 01:48 | 43.51567 | 70.86430 | 37915 ft | 511 kts | 82° |
| 2026-05-05 01:49 | 43.52301 | 70.96163 | 37920 ft | 511 kts | 83° |
| 2026-05-05 01:49 | 43.53019 | 71.05899 | 37922 ft | 511 kts | 83° |
| 2026-05-05 01:50 | 43.53730 | 71.15637 | 37929 ft | 511 kts | 83° |
| 2026-05-05 01:50 | 43.54435 | 71.25378 | 37933 ft | 511 kts | 83° |
| 2026-05-05 01:51 | 43.55131 | 71.35113 | 37942 ft | 510 kts | 83° |
| 2026-05-05 01:51 | 43.55818 | 71.44852 | 37939 ft | 510 kts | 83° |
| 2026-05-05 01:52 | 43.56498 | 71.54595 | 37950 ft | 510 kts | 83° |
| 2026-05-05 01:52 | 43.57165 | 71.64276 | 37948 ft | 510 kts | 83° |
| 2026-05-05 01:53 | 43.57828 | 71.74014 | 37949 ft | 510 kts | 84° |
| 2026-05-05 01:53 | 43.58482 | 71.83755 | 37954 ft | 510 kts | 84° |
| 2026-05-05 01:54 | 43.59128 | 71.93504 | 37954 ft | 510 kts | 84° |
| 2026-05-05 01:54 | 43.59765 | 72.03244 | 37960 ft | 510 kts | 84° |
| 2026-05-05 01:55 | 43.60395 | 72.12993 | 37960 ft | 510 kts | 84° |
| 2026-05-05 01:55 | 43.61016 | 72.22745 | 37963 ft | 510 kts | 84° |
| 2026-05-05 01:56 | 43.61629 | 72.32499 | 37967 ft | 510 kts | 84° |
| 2026-05-05 01:56 | 43.62234 | 72.42256 | 37971 ft | 510 kts | 84° |
| 2026-05-05 01:57 | 43.62830 | 72.52003 | 37974 ft | 510 kts | 84° |
| 2026-05-05 01:57 | 43.63418 | 72.61768 | 37978 ft | 510 kts | 84° |
| 2026-05-05 01:58 | 43.63998 | 72.71532 | 37982 ft | 510 kts | 84° |
| 2026-05-05 01:58 | 43.64569 | 72.81290 | 37983 ft | 510 kts | 84° |
| 2026-05-05 01:59 | 43.65133 | 72.91052 | 37988 ft | 510 kts | 84° |
| 2026-05-05 01:59 | 43.65687 | 73.00813 | 37985 ft | 510 kts | 85° |
| 2026-05-05 02:00 | 43.66234 | 73.10590 | 37983 ft | 510 kts | 85° |
| 2026-05-05 02:00 | 43.66772 | 73.20354 | 37982 ft | 510 kts | 85° |
| 2026-05-05 02:01 | 43.67302 | 73.30138 | 37982 ft | 510 kts | 85° |
| 2026-05-05 02:01 | 43.67821 | 73.39848 | 37992 ft | 510 kts | 85° |
| 2026-05-05 02:02 | 43.68334 | 73.49627 | 37992 ft | 510 kts | 85° |
| 2026-05-05 02:02 | 43.68839 | 73.59406 | 37994 ft | 510 kts | 85° |
| 2026-05-05 02:03 | 43.69336 | 73.69181 | 37998 ft | 510 kts | 85° |
| 2026-05-05 02:03 | 43.69490 | 73.78987 | 38001 ft | 511 kts | 90° |
| 2026-05-05 02:04 | 43.69260 | 73.88799 | 37998 ft | 511 kts | 91° |
| 2026-05-05 02:04 | 43.68966 | 73.98607 | 37994 ft | 511 kts | 92° |
| 2026-05-05 02:05 | 43.68664 | 74.08411 | 38001 ft | 511 kts | 92° |
| 2026-05-05 02:05 | 43.68362 | 74.18233 | 37995 ft | 512 kts | 91° |
| 2026-05-05 02:06 | 43.68066 | 74.28067 | 37989 ft | 513 kts | 91° |
| 2026-05-05 02:06 | 43.67763 | 74.37924 | 37991 ft | 514 kts | 91° |
| 2026-05-05 02:07 | 43.67450 | 74.47794 | 37998 ft | 515 kts | 91° |
| 2026-05-05 02:07 | 43.67130 | 74.57679 | 38005 ft | 515 kts | 91° |
| 2026-05-05 02:08 | 43.66800 | 74.67577 | 38017 ft | 516 kts | 92° |
| 2026-05-05 02:08 | 43.66459 | 74.77461 | 38026 ft | 516 kts | 92° |
| 2026-05-05 02:09 | 43.66113 | 74.87339 | 38063 ft | 514 kts | 92° |
| 2026-05-05 02:09 | 43.65759 | 74.97185 | 38151 ft | 512 kts | 92° |
| 2026-05-05 02:10 | 43.65401 | 75.06926 | 38205 ft | 511 kts | 92° |
| 2026-05-05 02:10 | 43.65030 | 75.16738 | 38209 ft | 512 kts | 92° |
| 2026-05-05 02:11 | 43.64652 | 75.26555 | 38207 ft | 512 kts | 92° |
| 2026-05-05 02:11 | 43.64266 | 75.36353 | 38209 ft | 512 kts | 92° |
| 2026-05-05 02:12 | 43.63670 | 75.51077 | 38213 ft | 512 kts | 92° |
| 2026-05-05 02:13 | 43.63263 | 75.60882 | 38213 ft | 512 kts | 93° |
| 2026-05-05 02:13 | 43.62843 | 75.70701 | 38210 ft | 512 kts | 93° |
| 2026-05-05 02:14 | 43.62415 | 75.80506 | 38216 ft | 512 kts | 93° |
| 2026-05-05 02:14 | 43.61979 | 75.90319 | 38216 ft | 512 kts | 93° |
| 2026-05-05 02:15 | 43.61535 | 76.00134 | 38216 ft | 512 kts | 93° |
| 2026-05-05 02:15 | 43.61086 | 76.09878 | 38219 ft | 512 kts | 93° |
| 2026-05-05 02:16 | 43.60626 | 76.19672 | 38220 ft | 512 kts | 93° |
| 2026-05-05 02:16 | 43.60157 | 76.29482 | 38222 ft | 512 kts | 93° |
| 2026-05-05 02:17 | 43.59800 | 76.39301 | 38222 ft | 512 kts | 90° |
| 2026-05-05 02:17 | 43.59820 | 76.49120 | 38218 ft | 512 kts | 89° |
| 2026-05-05 02:18 | 43.59865 | 76.58942 | 38221 ft | 512 kts | 89° |
| 2026-05-05 02:18 | 43.59843 | 76.68789 | 38222 ft | 513 kts | 90° |
| 2026-05-05 02:19 | 43.59780 | 76.78623 | 38220 ft | 513 kts | 90° |
| 2026-05-05 02:19 | 43.59695 | 76.88460 | 38226 ft | 513 kts | 90° |
| 2026-05-05 02:20 | 43.59598 | 76.98311 | 38220 ft | 513 kts | 90° |
| 2026-05-05 02:20 | 43.59501 | 77.08163 | 38222 ft | 514 kts | 90° |
| 2026-05-05 02:21 | 43.59398 | 77.18032 | 38220 ft | 514 kts | 90° |
| 2026-05-05 02:21 | 43.59117 | 77.27823 | 38221 ft | 514 kts | 92° |
| 2026-05-05 02:22 | 43.58726 | 77.37685 | 38216 ft | 515 kts | 92° |
| 2026-05-05 02:22 | 43.58348 | 77.47549 | 38216 ft | 515 kts | 92° |
| 2026-05-05 02:23 | 43.58049 | 77.57427 | 38215 ft | 515 kts | 90° |
| 2026-05-05 02:23 | 43.57957 | 77.67313 | 38214 ft | 515 kts | 90° |
| 2026-05-05 02:24 | 43.57877 | 77.77195 | 38216 ft | 516 kts | 90° |
| 2026-05-05 02:24 | 43.57756 | 77.87084 | 38217 ft | 516 kts | 90° |
| 2026-05-05 02:25 | 43.57608 | 77.96968 | 38218 ft | 516 kts | 91° |
| 2026-05-05 02:25 | 43.57447 | 78.06880 | 38218 ft | 517 kts | 91° |
| 2026-05-05 02:26 | 43.57277 | 78.16789 | 38220 ft | 517 kts | 91° |
| 2026-05-05 02:26 | 43.57105 | 78.26695 | 38219 ft | 517 kts | 91° |
| 2026-05-05 02:27 | 43.56924 | 78.36627 | 38219 ft | 518 kts | 91° |
| 2026-05-05 02:27 | 43.56735 | 78.46548 | 38222 ft | 518 kts | 91° |
| 2026-05-05 02:28 | 43.56535 | 78.56492 | 38225 ft | 518 kts | 91° |
| 2026-05-05 02:28 | 43.56328 | 78.66361 | 38222 ft | 519 kts | 91° |
| 2026-05-05 02:29 | 43.56112 | 78.76305 | 38235 ft | 519 kts | 91° |
| 2026-05-05 02:29 | 43.55885 | 78.86257 | 38239 ft | 520 kts | 91° |
| 2026-05-05 02:30 | 43.55650 | 78.96213 | 38243 ft | 520 kts | 91° |
| 2026-05-05 02:30 | 43.55407 | 79.06180 | 38241 ft | 520 kts | 91° |
| 2026-05-05 02:31 | 43.55155 | 79.16154 | 38246 ft | 521 kts | 91° |
| 2026-05-05 02:31 | 43.54939 | 79.24447 | 38242 ft | 521 kts | 91° |
| 2026-05-05 02:32 | 43.54671 | 79.34431 | 38248 ft | 521 kts | 91° |
| 2026-05-05 02:32 | 43.54393 | 79.44412 | 38253 ft | 522 kts | 91° |
| 2026-05-05 02:33 | 43.54106 | 79.54412 | 38257 ft | 522 kts | 91° |
| 2026-05-05 02:33 | 43.53810 | 79.64406 | 38260 ft | 522 kts | 91° |
| 2026-05-05 02:34 | 43.53507 | 79.74394 | 38262 ft | 523 kts | 92° |
| 2026-05-05 02:34 | 43.53194 | 79.84421 | 38265 ft | 523 kts | 92° |
| 2026-05-05 02:35 | 43.52873 | 79.94437 | 38270 ft | 523 kts | 92° |
| 2026-05-05 02:35 | 43.52542 | 80.04457 | 38276 ft | 524 kts | 92° |
| 2026-05-05 02:36 | 43.52202 | 80.14482 | 38276 ft | 524 kts | 92° |
| 2026-05-05 02:36 | 43.51854 | 80.24511 | 38278 ft | 524 kts | 92° |
| 2026-05-05 02:37 | 43.51499 | 80.34471 | 38288 ft | 524 kts | 92° |
| 2026-05-05 02:37 | 43.51133 | 80.44509 | 38296 ft | 525 kts | 92° |
| 2026-05-05 02:38 | 43.50759 | 80.54546 | 38306 ft | 525 kts | 92° |
| 2026-05-05 02:38 | 43.50375 | 80.64585 | 38315 ft | 525 kts | 92° |
| 2026-05-05 02:39 | 43.49983 | 80.74630 | 38314 ft | 525 kts | 92° |
| 2026-05-05 02:39 | 43.49770 | 80.84687 | 38320 ft | 525 kts | 90° |
| 2026-05-05 02:40 | 43.49681 | 80.94757 | 38323 ft | 526 kts | 90° |
| 2026-05-05 02:40 | 43.49562 | 81.04826 | 38329 ft | 526 kts | 90° |
| 2026-05-05 02:41 | 43.49402 | 81.14903 | 38336 ft | 526 kts | 91° |
| 2026-05-05 02:41 | 43.49223 | 81.24988 | 38342 ft | 527 kts | 91° |
| 2026-05-05 02:42 | 43.49035 | 81.35076 | 38350 ft | 527 kts | 91° |
| 2026-05-05 02:42 | 43.48840 | 81.45171 | 38360 ft | 528 kts | 91° |
| 2026-05-05 02:43 | 43.48637 | 81.55272 | 38362 ft | 528 kts | 91° |
| 2026-05-05 02:43 | 43.48426 | 81.65315 | 38369 ft | 528 kts | 91° |
| 2026-05-05 02:44 | 43.48203 | 81.75430 | 38385 ft | 528 kts | 91° |
| 2026-05-05 02:44 | 43.47954 | 81.85547 | 38371 ft | 529 kts | 92° |
| 2026-05-05 02:45 | 43.47695 | 81.95668 | 38372 ft | 529 kts | 92° |
| 2026-05-05 02:45 | 43.47431 | 82.05783 | 38368 ft | 529 kts | 92° |
| 2026-05-05 02:46 | 43.47158 | 82.15920 | 38374 ft | 530 kts | 92° |
| 2026-05-05 02:46 | 43.46876 | 82.26060 | 38376 ft | 530 kts | 92° |
| 2026-05-05 02:47 | 43.46585 | 82.36213 | 38368 ft | 531 kts | 92° |
| 2026-05-05 02:47 | 43.46285 | 82.46372 | 38376 ft | 532 kts | 92° |
| 2026-05-05 02:48 | 43.45975 | 82.56548 | 38383 ft | 532 kts | 92° |
| 2026-05-05 02:48 | 43.45655 | 82.66725 | 38388 ft | 533 kts | 92° |
| 2026-05-05 02:49 | 43.45327 | 82.76920 | 38389 ft | 533 kts | 92° |
| 2026-05-05 02:49 | 43.44989 | 82.87120 | 38398 ft | 534 kts | 93° |
| 2026-05-05 02:50 | 43.44641 | 82.97333 | 38399 ft | 534 kts | 93° |
| 2026-05-05 02:50 | 43.44284 | 83.07554 | 38396 ft | 535 kts | 93° |
| 2026-05-05 02:51 | 43.43918 | 83.17772 | 38409 ft | 535 kts | 93° |
| 2026-05-05 02:51 | 43.43545 | 83.27948 | 38402 ft | 536 kts | 93° |
| 2026-05-05 02:52 | 43.43160 | 83.38191 | 38410 ft | 536 kts | 93° |
| 2026-05-05 02:52 | 43.42492 | 83.48402 | 38414 ft | 536 kts | 97° |
| 2026-05-05 02:53 | 43.41531 | 83.58574 | 38413 ft | 536 kts | 98° |
| 2026-05-05 02:53 | 43.40589 | 83.68731 | 38425 ft | 536 kts | 97° |
| 2026-05-05 02:54 | 43.39696 | 83.78898 | 38539 ft | 535 kts | 97° |
| 2026-05-05 02:54 | 43.38817 | 83.89068 | 38546 ft | 536 kts | 97° |
| 2026-05-05 02:55 | 43.37930 | 83.99236 | 38547 ft | 535 kts | 98° |
| 2026-05-05 02:55 | 43.37032 | 84.09394 | 38602 ft | 535 kts | 98° |
| 2026-05-05 02:56 | 43.36123 | 84.19543 | 38603 ft | 535 kts | 98° |
| 2026-05-05 02:56 | 43.35205 | 84.29696 | 38606 ft | 535 kts | 98° |
| 2026-05-05 02:57 | 43.34279 | 84.39847 | 38619 ft | 536 kts | 98° |
| 2026-05-05 02:57 | 43.33321 | 84.49996 | 38639 ft | 536 kts | 99° |
| 2026-05-05 02:58 | 43.32348 | 84.60135 | 38661 ft | 536 kts | 99° |
| 2026-05-05 02:58 | 43.31366 | 84.70287 | 38670 ft | 536 kts | 99° |
| 2026-05-05 02:59 | 43.30379 | 84.80436 | 38683 ft | 536 kts | 99° |
| 2026-05-05 02:59 | 43.29384 | 84.90576 | 38714 ft | 536 kts | 99° |
| 2026-05-05 03:00 | 43.28378 | 85.00726 | 38713 ft | 537 kts | 99° |
| 2026-05-05 03:00 | 43.27363 | 85.10881 | 38709 ft | 537 kts | 99° |
| 2026-05-05 03:01 | 43.26338 | 85.21035 | 38735 ft | 538 kts | 99° |
| 2026-05-05 03:01 | 43.25309 | 85.31129 | 38739 ft | 538 kts | 99° |
| 2026-05-05 03:02 | 43.24265 | 85.41305 | 38770 ft | 538 kts | 99° |
| 2026-05-05 03:02 | 43.23212 | 85.51470 | 38772 ft | 539 kts | 99° |
| 2026-05-05 03:03 | 43.22151 | 85.61636 | 38776 ft | 539 kts | 100° |
| 2026-05-05 03:03 | 43.21075 | 85.71819 | 38813 ft | 540 kts | 100° |
| 2026-05-05 03:04 | 43.19990 | 85.82005 | 38843 ft | 540 kts | 100° |
| 2026-05-05 03:04 | 43.19383 | 85.92259 | 38823 ft | 541 kts | 87° |
| 2026-05-05 03:04 | 43.19901 | 85.97366 | 38790 ft | 541 kts | 76° |
| 2026-05-05 03:05 | 43.21075 | 86.02247 | 38786 ft | 541 kts | 65° |
| 2026-05-05 03:05 | 43.24839 | 86.11132 | 38775 ft | 538 kts | 55° |
| 2026-05-05 03:06 | 43.28999 | 86.19676 | 38791 ft | 539 kts | 54° |
| 2026-05-05 03:06 | 43.33217 | 86.28206 | 38804 ft | 540 kts | 54° |
| 2026-05-05 03:07 | 43.37414 | 86.36758 | 38877 ft | 540 kts | 54° |
| 2026-05-05 03:07 | 43.41591 | 86.45363 | 38886 ft | 541 kts | 54° |
| 2026-05-05 03:08 | 43.45792 | 86.54012 | 38888 ft | 543 kts | 54° |
| 2026-05-05 03:08 | 43.49998 | 86.62654 | 38906 ft | 542 kts | 54° |
| 2026-05-05 03:09 | 43.54194 | 86.71299 | 38911 ft | 544 kts | 54° |
| 2026-05-05 03:09 | 43.58339 | 86.79954 | 38904 ft | 545 kts | 55° |
| 2026-05-05 03:10 | 43.62473 | 86.88723 | 38917 ft | 546 kts | 55° |
| 2026-05-05 03:10 | 43.66609 | 86.97514 | 38913 ft | 547 kts | 55° |
| 2026-05-05 03:11 | 43.70763 | 87.06347 | 38913 ft | 547 kts | 55° |
| 2026-05-05 03:11 | 43.74902 | 87.15176 | 38915 ft | 547 kts | 55° |
| 2026-05-05 03:12 | 43.79030 | 87.24023 | 38910 ft | 548 kts | 55° |
| 2026-05-05 03:12 | 43.83160 | 87.32896 | 38923 ft | 548 kts | 55° |
| 2026-05-05 03:13 | 43.87282 | 87.41780 | 38925 ft | 548 kts | 55° |
| 2026-05-05 03:13 | 43.91394 | 87.50671 | 38927 ft | 548 kts | 55° |
| 2026-05-05 03:14 | 43.95778 | 87.59280 | 38932 ft | 546 kts | 50° |
| 2026-05-05 03:14 | 44.00481 | 87.67569 | 38935 ft | 546 kts | 49° |
| 2026-05-05 03:15 | 44.05124 | 87.75836 | 38939 ft | 546 kts | 50° |
| 2026-05-05 03:15 | 44.09732 | 87.84242 | 38940 ft | 547 kts | 50° |
| 2026-05-05 03:16 | 44.14306 | 87.92709 | 38938 ft | 548 kts | 51° |
| 2026-05-05 03:16 | 44.16306 | 87.97236 | 38938 ft | 550 kts | 62° |
| 2026-05-05 03:16 | 44.17760 | 88.02172 | 38943 ft | 553 kts | 72° |
| 2026-05-05 03:17 | 44.19597 | 88.12574 | 38945 ft | 554 kts | 77° |
| 2026-05-05 03:17 | 44.21128 | 88.23095 | 38947 ft | 555 kts | 78° |
| 2026-05-05 03:18 | 44.22631 | 88.33650 | 38949 ft | 555 kts | 78° |
| 2026-05-05 03:18 | 44.24163 | 88.44220 | 38948 ft | 556 kts | 78° |
| 2026-05-05 03:19 | 44.26475 | 88.60077 | 38943 ft | 557 kts | 78° |
| 2026-05-05 03:19 | 44.27749 | 88.68872 | 38944 ft | 557 kts | 78° |
| 2026-05-05 03:20 | 44.29273 | 88.79470 | 38940 ft | 557 kts | 78° |
| 2026-05-05 03:20 | 44.30787 | 88.90081 | 38937 ft | 557 kts | 78° |
| 2026-05-05 03:21 | 44.32292 | 89.00705 | 38935 ft | 558 kts | 78° |
| 2026-05-05 03:21 | 44.33787 | 89.11336 | 38935 ft | 558 kts | 78° |
| 2026-05-05 03:22 | 44.35277 | 89.22000 | 38934 ft | 559 kts | 78° |
| 2026-05-05 03:22 | 44.36756 | 89.32662 | 38936 ft | 559 kts | 78° |
| 2026-05-05 03:23 | 44.38226 | 89.43334 | 38929 ft | 559 kts | 78° |
| 2026-05-05 03:23 | 44.39686 | 89.54015 | 38930 ft | 559 kts | 78° |
| 2026-05-05 03:24 | 44.40993 | 89.64665 | 38923 ft | 560 kts | 85° |
| 2026-05-05 03:24 | 44.41021 | 89.70107 | 38923 ft | 558 kts | 96° |
| 2026-05-05 03:24 | 44.40388 | 89.75436 | 38933 ft | 556 kts | 106° |
| 2026-05-05 03:25 | 44.38321 | 89.85840 | 38923 ft | 555 kts | 109° |
| 2026-05-05 03:25 | 44.36023 | 89.96123 | 38923 ft | 555 kts | 110° |
| 2026-05-05 03:26 | 44.33717 | 90.06412 | 38922 ft | 555 kts | 110° |
| 2026-05-05 03:26 | 44.31440 | 90.16707 | 38916 ft | 555 kts | 110° |
| 2026-05-05 03:27 | 44.29169 | 90.27004 | 38920 ft | 555 kts | 110° |
| 2026-05-05 03:27 | 44.26891 | 90.37293 | 38914 ft | 555 kts | 110° |
| 2026-05-05 03:28 | 44.24600 | 90.47584 | 38912 ft | 555 kts | 110° |
| 2026-05-05 03:28 | 44.22298 | 90.57873 | 38911 ft | 556 kts | 110° |
| 2026-05-05 03:29 | 44.19999 | 90.68093 | 38911 ft | 556 kts | 110° |
| 2026-05-05 03:29 | 44.17676 | 90.78375 | 38908 ft | 557 kts | 110° |
| 2026-05-05 03:30 | 44.15340 | 90.88661 | 38902 ft | 557 kts | 110° |
| 2026-05-05 03:30 | 44.12996 | 90.98938 | 38900 ft | 558 kts | 110° |
| 2026-05-05 03:31 | 44.10641 | 91.09224 | 38896 ft | 558 kts | 110° |
| 2026-05-05 03:31 | 44.08277 | 91.19502 | 38887 ft | 558 kts | 110° |
| 2026-05-05 03:32 | 44.05900 | 91.29783 | 38885 ft | 558 kts | 110° |
| 2026-05-05 03:32 | 44.03516 | 91.40051 | 38884 ft | 558 kts | 111° |
| 2026-05-05 03:33 | 44.01117 | 91.50322 | 38883 ft | 559 kts | 111° |
| 2026-05-05 03:33 | 43.98685 | 91.60575 | 38880 ft | 559 kts | 111° |
| 2026-05-05 03:34 | 43.96241 | 91.70818 | 38870 ft | 559 kts | 111° |
| 2026-05-05 03:34 | 43.93789 | 91.81070 | 38871 ft | 560 kts | 111° |
| 2026-05-05 03:35 | 43.91331 | 91.91317 | 38871 ft | 560 kts | 111° |
| 2026-05-05 03:35 | 43.88860 | 92.01574 | 38869 ft | 561 kts | 111° |
| 2026-05-05 03:36 | 43.86379 | 92.11823 | 38866 ft | 561 kts | 111° |
| 2026-05-05 03:36 | 43.83902 | 92.22001 | 38858 ft | 561 kts | 111° |
| 2026-05-05 03:37 | 43.81399 | 92.32247 | 38841 ft | 562 kts | 111° |
| 2026-05-05 03:37 | 43.78886 | 92.42492 | 38837 ft | 562 kts | 112° |
| 2026-05-05 03:38 | 43.76359 | 92.52742 | 38831 ft | 563 kts | 112° |
| 2026-05-05 03:38 | 43.73820 | 92.62994 | 38819 ft | 563 kts | 112° |
| 2026-05-05 03:39 | 43.71275 | 92.73229 | 38809 ft | 563 kts | 112° |
| 2026-05-05 03:39 | 43.68717 | 92.83466 | 38802 ft | 564 kts | 112° |
| 2026-05-05 03:40 | 43.66150 | 92.93701 | 38797 ft | 564 kts | 112° |
| 2026-05-05 03:40 | 43.63590 | 93.03938 | 38798 ft | 564 kts | 111° |
| 2026-05-05 03:41 | 43.61132 | 93.14245 | 38797 ft | 565 kts | 111° |
| 2026-05-05 03:41 | 43.58695 | 93.24539 | 38785 ft | 565 kts | 111° |
| 2026-05-05 03:42 | 43.56229 | 93.34827 | 38782 ft | 565 kts | 111° |
| 2026-05-05 03:42 | 43.53758 | 93.45031 | 38777 ft | 565 kts | 111° |
| 2026-05-05 03:43 | 43.51257 | 93.55297 | 38768 ft | 566 kts | 111° |
| 2026-05-05 03:43 | 43.48744 | 93.65572 | 38763 ft | 567 kts | 112° |
| 2026-05-05 03:44 | 43.46217 | 93.75861 | 38758 ft | 567 kts | 112° |
| 2026-05-05 03:44 | 43.43679 | 93.86150 | 38760 ft | 568 kts | 112° |
| 2026-05-05 03:45 | 43.41126 | 93.96453 | 38756 ft | 569 kts | 112° |
| 2026-05-05 03:45 | 43.38562 | 94.06754 | 38754 ft | 570 kts | 112° |
| 2026-05-05 03:46 | 43.35986 | 94.17057 | 38752 ft | 570 kts | 112° |
| 2026-05-05 03:46 | 43.33398 | 94.27370 | 38751 ft | 572 kts | 112° |
| 2026-05-05 03:47 | 43.30794 | 94.37691 | 38747 ft | 573 kts | 112° |
| 2026-05-05 03:47 | 43.28176 | 94.48023 | 38741 ft | 574 kts | 112° |
| 2026-05-05 03:48 | 43.25545 | 94.58362 | 38734 ft | 574 kts | 112° |
| 2026-05-05 03:48 | 43.22918 | 94.68644 | 38716 ft | 575 kts | 112° |
| 2026-05-05 03:49 | 43.20261 | 94.78995 | 38701 ft | 575 kts | 112° |
| 2026-05-05 03:49 | 43.17594 | 94.89331 | 38693 ft | 575 kts | 112° |
| 2026-05-05 03:50 | 43.14905 | 94.99643 | 38672 ft | 574 kts | 115° |
| 2026-05-05 03:50 | 43.10951 | 95.08920 | 38657 ft | 558 kts | 137° |
| 2026-05-05 03:51 | 43.08213 | 95.12592 | 38652 ft | 546 kts | 149° |
| 2026-05-05 03:51 | 43.05202 | 95.15706 | 38662 ft | 541 kts | 152° |
| 2026-05-05 03:51 | 42.99004 | 95.21509 | 38663 ft | 539 kts | 154° |
| 2026-05-05 03:52 | 42.92752 | 95.27185 | 38653 ft | 539 kts | 154° |
| 2026-05-05 03:52 | 42.86522 | 95.32895 | 38641 ft | 540 kts | 154° |
| 2026-05-05 03:53 | 42.80297 | 95.38641 | 38636 ft | 540 kts | 153° |
| 2026-05-05 03:53 | 42.74079 | 95.44383 | 38640 ft | 540 kts | 154° |
| 2026-05-05 03:54 | 42.67858 | 95.50111 | 38625 ft | 540 kts | 154° |
| 2026-05-05 03:54 | 42.61644 | 95.55817 | 38614 ft | 540 kts | 154° |
| 2026-05-05 03:55 | 42.55415 | 95.61521 | 38602 ft | 540 kts | 154° |
| 2026-05-05 03:55 | 42.49219 | 95.67181 | 38597 ft | 540 kts | 154° |
| 2026-05-05 03:56 | 42.43404 | 95.73804 | 38590 ft | 559 kts | 137° |
| 2026-05-05 03:56 | 42.41114 | 95.78104 | 38585 ft | 569 kts | 124° |
| 2026-05-05 03:56 | 42.39456 | 95.82991 | 38588 ft | 577 kts | 111° |
| 2026-05-05 03:57 | 42.38543 | 95.88298 | 38589 ft | 581 kts | 97° |
| 2026-05-05 03:57 | 42.38210 | 95.93745 | 38599 ft | 582 kts | 94° |
| 2026-05-05 03:57 | 42.37933 | 96.04690 | 38606 ft | 583 kts | 91° |
| 2026-05-05 03:58 | 42.37736 | 96.15662 | 38605 ft | 584 kts | 92° |
| 2026-05-05 03:58 | 42.37463 | 96.26639 | 38604 ft | 584 kts | 92° |
| 2026-05-05 03:59 | 42.37131 | 96.37624 | 38605 ft | 585 kts | 92° |
| 2026-05-05 03:59 | 42.36779 | 96.48610 | 38599 ft | 585 kts | 92° |
| 2026-05-05 04:00 | 42.36420 | 96.59614 | 38602 ft | 586 kts | 92° |
| 2026-05-05 04:00 | 42.36052 | 96.70624 | 38623 ft | 586 kts | 93° |
| 2026-05-05 04:01 | 42.35675 | 96.81637 | 38628 ft | 587 kts | 93° |
| 2026-05-05 04:01 | 42.35288 | 96.92677 | 38643 ft | 587 kts | 93° |
| 2026-05-05 04:02 | 42.34891 | 97.03687 | 38682 ft | 587 kts | 93° |
| 2026-05-05 04:02 | 42.34482 | 97.14702 | 38685 ft | 587 kts | 93° |
| 2026-05-05 04:03 | 42.34066 | 97.25643 | 38691 ft | 587 kts | 93° |
| 2026-05-05 04:03 | 42.33633 | 97.36720 | 38695 ft | 586 kts | 93° |
| 2026-05-05 04:04 | 42.33197 | 97.47648 | 38707 ft | 586 kts | 93° |
| 2026-05-05 04:04 | 42.32743 | 97.58714 | 38713 ft | 586 kts | 93° |
| 2026-05-05 04:05 | 42.32285 | 97.69629 | 38732 ft | 585 kts | 93° |
| 2026-05-05 04:05 | 42.31815 | 97.80604 | 38750 ft | 584 kts | 93° |
| 2026-05-05 04:06 | 42.31335 | 97.91545 | 38770 ft | 582 kts | 93° |
| 2026-05-05 04:06 | 42.30847 | 98.02443 | 38764 ft | 581 kts | 93° |
| 2026-05-05 04:07 | 42.30350 | 98.13329 | 38759 ft | 580 kts | 93° |
| 2026-05-05 04:07 | 42.29842 | 98.24198 | 38752 ft | 580 kts | 93° |
| 2026-05-05 04:08 | 42.29414 | 98.33216 | 38744 ft | 579 kts | 93° |
| 2026-05-05 04:08 | 42.28872 | 98.44065 | 38737 ft | 579 kts | 94° |
| 2026-05-05 04:09 | 42.28300 | 98.54906 | 38729 ft | 578 kts | 94° |
| 2026-05-05 04:09 | 42.27722 | 98.65741 | 38721 ft | 579 kts | 94° |
| 2026-05-05 04:10 | 42.27138 | 98.76582 | 38718 ft | 579 kts | 94° |
| 2026-05-05 04:10 | 42.26546 | 98.87415 | 38716 ft | 579 kts | 94° |
| 2026-05-05 04:11 | 42.25943 | 98.98252 | 38708 ft | 579 kts | 94° |
| 2026-05-05 04:11 | 42.25331 | 99.09074 | 38703 ft | 578 kts | 94° |
| 2026-05-05 04:12 | 42.24708 | 99.19893 | 38694 ft | 578 kts | 94° |
| 2026-05-05 04:12 | 42.24075 | 99.30709 | 38686 ft | 578 kts | 94° |
| 2026-05-05 04:13 | 42.23437 | 99.41447 | 38685 ft | 577 kts | 94° |
| 2026-05-05 04:13 | 42.22786 | 99.52224 | 38674 ft | 576 kts | 94° |
| 2026-05-05 04:14 | 42.22125 | 99.62988 | 38673 ft | 575 kts | 94° |
| 2026-05-05 04:14 | 42.21456 | 99.73728 | 38665 ft | 574 kts | 94° |
| 2026-05-05 04:15 | 42.20777 | 99.84463 | 38655 ft | 574 kts | 94° |
| 2026-05-05 04:15 | 42.20089 | 99.95188 | 38653 ft | 573 kts | 94° |
| 2026-05-05 04:16 | 42.19392 | 100.05896 | 38649 ft | 573 kts | 94° |
| 2026-05-05 04:16 | 42.18684 | 100.16599 | 38642 ft | 573 kts | 94° |
| 2026-05-05 04:17 | 42.17968 | 100.27279 | 38640 ft | 572 kts | 94° |
| 2026-05-05 04:17 | 42.17242 | 100.37967 | 38632 ft | 572 kts | 94° |
| 2026-05-05 04:18 | 42.16507 | 100.48637 | 38625 ft | 571 kts | 94° |
| 2026-05-05 04:18 | 42.15767 | 100.59236 | 38626 ft | 571 kts | 94° |
| 2026-05-05 04:19 | 42.15008 | 100.69951 | 38625 ft | 571 kts | 94° |
| 2026-05-05 04:19 | 42.14250 | 100.80522 | 38616 ft | 570 kts | 94° |
| 2026-05-05 04:20 | 42.13477 | 100.91154 | 38619 ft | 570 kts | 94° |
| 2026-05-05 04:20 | 42.12640 | 101.01780 | 38611 ft | 570 kts | 98° |
| 2026-05-05 04:21 | 42.10535 | 101.12059 | 38611 ft | 569 kts | 108° |
| 2026-05-05 04:21 | 42.07935 | 101.22130 | 38618 ft | 569 kts | 110° |
| 2026-05-05 04:22 | 42.05251 | 101.32147 | 38612 ft | 568 kts | 110° |
| 2026-05-05 04:22 | 42.02579 | 101.42157 | 38614 ft | 568 kts | 110° |
| 2026-05-05 04:23 | 41.99926 | 101.52149 | 38611 ft | 567 kts | 110° |
| 2026-05-05 04:23 | 41.97274 | 101.62127 | 38610 ft | 567 kts | 110° |
| 2026-05-05 04:24 | 41.94618 | 101.72081 | 38611 ft | 566 kts | 110° |
| 2026-05-05 04:25 | 41.90620 | 101.86972 | 38609 ft | 564 kts | 110° |
| 2026-05-05 04:25 | 41.87949 | 101.96872 | 38613 ft | 564 kts | 110° |
| 2026-05-05 04:26 | 41.85290 | 102.06687 | 38609 ft | 563 kts | 110° |
| 2026-05-05 04:26 | 41.82609 | 102.16543 | 38613 ft | 562 kts | 110° |
| 2026-05-05 04:27 | 41.79924 | 102.26376 | 38606 ft | 561 kts | 110° |
| 2026-05-05 04:27 | 41.77233 | 102.36190 | 38621 ft | 561 kts | 110° |
| 2026-05-05 04:28 | 41.74537 | 102.45988 | 38602 ft | 560 kts | 110° |
| 2026-05-05 04:28 | 41.71836 | 102.55762 | 38602 ft | 560 kts | 110° |
| 2026-05-05 04:29 | 41.69128 | 102.65525 | 38603 ft | 559 kts | 110° |
| 2026-05-05 04:29 | 41.66416 | 102.75258 | 38602 ft | 558 kts | 110° |
| 2026-05-05 04:30 | 41.63700 | 102.84978 | 38599 ft | 557 kts | 110° |
| 2026-05-05 04:30 | 41.60983 | 102.94671 | 38602 ft | 557 kts | 110° |
| 2026-05-05 04:31 | 41.58261 | 103.04359 | 38598 ft | 556 kts | 110° |
| 2026-05-05 04:31 | 41.55529 | 103.14019 | 38598 ft | 556 kts | 110° |
| 2026-05-05 04:32 | 41.52786 | 103.23665 | 38595 ft | 555 kts | 110° |
| 2026-05-05 04:32 | 41.50043 | 103.33285 | 38594 ft | 555 kts | 110° |
| 2026-05-05 04:33 | 41.47294 | 103.42893 | 38596 ft | 554 kts | 110° |
| 2026-05-05 04:33 | 41.44558 | 103.52424 | 38591 ft | 554 kts | 110° |
| 2026-05-05 04:34 | 41.41799 | 103.61999 | 38588 ft | 553 kts | 110° |
| 2026-05-05 04:34 | 41.39035 | 103.71555 | 38590 ft | 553 kts | 110° |
| 2026-05-05 04:35 | 41.36265 | 103.81095 | 38584 ft | 552 kts | 110° |
| 2026-05-05 04:35 | 41.33492 | 103.90610 | 38581 ft | 551 kts | 110° |
| 2026-05-05 04:36 | 41.30714 | 104.00107 | 38578 ft | 550 kts | 110° |
| 2026-05-05 04:36 | 41.27934 | 104.09580 | 38579 ft | 550 kts | 110° |
| 2026-05-05 04:37 | 41.25148 | 104.19035 | 38579 ft | 549 kts | 110° |
| 2026-05-05 04:37 | 41.22355 | 104.28480 | 38580 ft | 549 kts | 110° |
| 2026-05-05 04:38 | 41.19560 | 104.37899 | 38581 ft | 548 kts | 110° |
| 2026-05-05 04:38 | 41.16758 | 104.47309 | 38579 ft | 548 kts | 110° |
| 2026-05-05 04:39 | 41.13950 | 104.56705 | 38584 ft | 547 kts | 110° |
| 2026-05-05 04:39 | 41.11139 | 104.66076 | 38589 ft | 547 kts | 110° |
| 2026-05-05 04:40 | 41.08278 | 104.75401 | 38588 ft | 546 kts | 112° |
| 2026-05-05 04:40 | 41.05160 | 104.84577 | 38589 ft | 546 kts | 114° |
| 2026-05-05 04:41 | 41.01996 | 104.93711 | 38469 ft | 546 kts | 115° |
| 2026-05-05 04:41 | 41.00428 | 104.98289 | 38571 ft | 548 kts | 115° |
| 2026-05-05 04:41 | 40.98850 | 105.02906 | 38594 ft | 553 kts | 115° |
| 2026-05-05 04:42 | 40.95681 | 105.12199 | 38586 ft | 563 kts | 115° |
| 2026-05-05 04:42 | 40.92430 | 105.21723 | 38591 ft | 572 kts | 115° |
| 2026-05-05 04:43 | 40.89121 | 105.31385 | 38594 ft | 581 kts | 115° |
| 2026-05-05 04:43 | 40.85763 | 105.41154 | 38599 ft | 586 kts | 115° |
| 2026-05-05 04:44 | 40.82379 | 105.50964 | 38608 ft | 587 kts | 115° |
| 2026-05-05 04:44 | 40.78986 | 105.60764 | 38607 ft | 586 kts | 115° |
| 2026-05-05 04:45 | 40.75590 | 105.70539 | 38610 ft | 586 kts | 114° |
| 2026-05-05 04:45 | 40.72187 | 105.80298 | 38630 ft | 585 kts | 114° |
| 2026-05-05 04:46 | 40.68779 | 105.90040 | 38612 ft | 585 kts | 114° |
| 2026-05-05 04:46 | 40.65366 | 105.99764 | 38629 ft | 585 kts | 114° |
| 2026-05-05 04:47 | 40.61947 | 106.09472 | 38631 ft | 584 kts | 114° |
| 2026-05-05 04:47 | 40.58543 | 106.19103 | 38624 ft | 584 kts | 114° |
| 2026-05-05 04:48 | 40.55108 | 106.28791 | 38623 ft | 583 kts | 114° |
| 2026-05-05 04:48 | 40.51672 | 106.38445 | 38620 ft | 583 kts | 114° |
| 2026-05-05 04:49 | 40.48229 | 106.48091 | 38612 ft | 583 kts | 114° |
| 2026-05-05 04:49 | 40.44779 | 106.57722 | 38610 ft | 583 kts | 114° |
| 2026-05-05 04:50 | 40.41322 | 106.67342 | 38605 ft | 582 kts | 114° |
| 2026-05-05 04:50 | 40.37860 | 106.76943 | 38609 ft | 582 kts | 114° |
| 2026-05-05 04:51 | 40.34391 | 106.86529 | 38607 ft | 582 kts | 114° |
| 2026-05-05 04:51 | 40.31868 | 106.96517 | 38613 ft | 575 kts | 94° |
| 2026-05-05 04:51 | 40.31668 | 107.01704 | 38614 ft | 567 kts | 81° |
| 2026-05-05 04:52 | 40.32064 | 107.06809 | 38630 ft | 562 kts | 76° |
| 2026-05-05 04:52 | 40.33273 | 107.16909 | 38656 ft | 560 kts | 74° |
| 2026-05-05 04:53 | 40.34605 | 107.26981 | 38697 ft | 560 kts | 74° |
| 2026-05-05 04:53 | 40.35882 | 107.36990 | 38706 ft | 561 kts | 75° |
| 2026-05-05 04:54 | 40.37119 | 107.47084 | 38747 ft | 560 kts | 75° |
| 2026-05-05 04:54 | 40.38334 | 107.57179 | 38785 ft | 560 kts | 75° |
| 2026-05-05 04:55 | 40.39542 | 107.67288 | 38808 ft | 560 kts | 75° |
| 2026-05-05 04:55 | 40.40741 | 107.77376 | 38842 ft | 560 kts | 75° |
| 2026-05-05 04:56 | 40.41932 | 107.87464 | 38879 ft | 559 kts | 75° |
| 2026-05-05 04:56 | 40.42917 | 107.95854 | 38901 ft | 559 kts | 76° |
| 2026-05-05 04:57 | 40.44092 | 108.05949 | 38919 ft | 560 kts | 76° |
| 2026-05-05 04:57 | 40.45441 | 108.17683 | 38961 ft | 559 kts | 76° |
| 2026-05-05 04:58 | 40.46406 | 108.26146 | 38974 ft | 559 kts | 76° |
| 2026-05-05 04:58 | 40.47549 | 108.36236 | 38999 ft | 559 kts | 76° |
| 2026-05-05 04:59 | 40.48684 | 108.46328 | 39020 ft | 559 kts | 76° |
| 2026-05-05 04:59 | 40.49811 | 108.56429 | 39070 ft | 558 kts | 76° |
| 2026-05-05 05:00 | 40.50918 | 108.66447 | 39091 ft | 558 kts | 77° |
| 2026-05-05 05:00 | 40.52025 | 108.76534 | 39111 ft | 558 kts | 77° |
| 2026-05-05 05:01 | 40.53122 | 108.86623 | 39127 ft | 558 kts | 77° |
| 2026-05-05 05:01 | 40.54211 | 108.96714 | 39157 ft | 557 kts | 77° |
| 2026-05-05 05:02 | 40.55290 | 109.06789 | 39212 ft | 556 kts | 77° |
| 2026-05-05 05:02 | 40.56359 | 109.16865 | 39243 ft | 555 kts | 77° |
| 2026-05-05 05:03 | 40.57417 | 109.26928 | 39262 ft | 555 kts | 77° |
| 2026-05-05 05:03 | 40.58465 | 109.36977 | 39291 ft | 554 kts | 77° |
| 2026-05-05 05:04 | 40.59505 | 109.47026 | 39314 ft | 554 kts | 78° |
| 2026-05-05 05:04 | 40.60534 | 109.57074 | 39335 ft | 554 kts | 78° |
| 2026-05-05 05:05 | 40.61555 | 109.67118 | 39351 ft | 554 kts | 78° |
| 2026-05-05 05:05 | 40.62567 | 109.77157 | 39367 ft | 553 kts | 78° |
| 2026-05-05 05:06 | 40.63568 | 109.87194 | 39384 ft | 553 kts | 78° |
| 2026-05-05 05:06 | 40.64513 | 109.97248 | 39396 ft | 555 kts | 82° |
| 2026-05-05 05:07 | 40.64669 | 110.07432 | 39424 ft | 557 kts | 86° |
| 2026-05-05 05:07 | 40.64622 | 110.17626 | 39477 ft | 557 kts | 87° |
| 2026-05-05 05:08 | 40.64537 | 110.27801 | 39514 ft | 556 kts | 87° |
| 2026-05-05 05:08 | 40.64457 | 110.37980 | 39548 ft | 556 kts | 87° |
| 2026-05-05 05:09 | 40.64379 | 110.48079 | 39593 ft | 555 kts | 87° |
| 2026-05-05 05:09 | 40.64294 | 110.58237 | 39595 ft | 555 kts | 87° |
| 2026-05-05 05:10 | 40.64202 | 110.68388 | 39665 ft | 553 kts | 87° |
| 2026-05-05 05:10 | 40.64101 | 110.78504 | 39711 ft | 551 kts | 88° |
| 2026-05-05 05:11 | 40.63992 | 110.88608 | 39691 ft | 553 kts | 88° |
| 2026-05-05 05:11 | 40.63873 | 110.98733 | 39697 ft | 553 kts | 88° |
| 2026-05-05 05:12 | 40.63745 | 111.08856 | 39702 ft | 553 kts | 88° |
| 2026-05-05 05:12 | 40.63609 | 111.18976 | 39712 ft | 553 kts | 88° |
| 2026-05-05 05:13 | 40.63469 | 111.29087 | 39714 ft | 553 kts | 88° |
| 2026-05-05 05:13 | 40.63312 | 111.39207 | 39715 ft | 552 kts | 88° |
| 2026-05-05 05:14 | 40.63147 | 111.49314 | 39724 ft | 552 kts | 88° |
| 2026-05-05 05:14 | 40.62975 | 111.59410 | 39738 ft | 552 kts | 88° |
| 2026-05-05 05:15 | 40.62795 | 111.69507 | 39744 ft | 551 kts | 88° |
| 2026-05-05 05:15 | 40.62607 | 111.79595 | 39759 ft | 551 kts | 88° |
| 2026-05-05 05:16 | 40.62411 | 111.89599 | 39767 ft | 550 kts | 88° |
| 2026-05-05 05:16 | 40.62234 | 111.99679 | 39775 ft | 550 kts | 88° |
| 2026-05-05 05:17 | 40.62011 | 112.09745 | 39779 ft | 550 kts | 88° |
| 2026-05-05 05:17 | 40.61774 | 112.19815 | 39784 ft | 550 kts | 88° |
| 2026-05-05 05:18 | 40.61533 | 112.29886 | 39792 ft | 550 kts | 88° |
| 2026-05-05 05:18 | 40.61289 | 112.39934 | 39797 ft | 550 kts | 88° |
| 2026-05-05 05:19 | 40.61037 | 112.50001 | 39816 ft | 550 kts | 88° |
| 2026-05-05 05:19 | 40.60574 | 112.60049 | 39844 ft | 551 kts | 91° |
| 2026-05-05 05:20 | 40.59928 | 112.70102 | 39844 ft | 552 kts | 91° |
| 2026-05-05 05:20 | 40.59207 | 112.80157 | 39841 ft | 553 kts | 93° |
| 2026-05-05 05:21 | 40.58395 | 112.90165 | 39835 ft | 553 kts | 92° |
| 2026-05-05 05:21 | 40.57708 | 113.00289 | 39830 ft | 552 kts | 91° |
| 2026-05-05 05:22 | 40.57050 | 113.10353 | 39830 ft | 552 kts | 91° |
| 2026-05-05 05:22 | 40.56380 | 113.20342 | 39831 ft | 552 kts | 91° |
| 2026-05-05 05:23 | 40.55688 | 113.30403 | 39838 ft | 552 kts | 91° |
| 2026-05-05 05:23 | 40.54985 | 113.40446 | 39838 ft | 552 kts | 91° |
| 2026-05-05 05:24 | 40.54273 | 113.50496 | 39848 ft | 552 kts | 91° |
| 2026-05-05 05:24 | 40.53555 | 113.60522 | 39878 ft | 551 kts | 92° |
| 2026-05-05 05:25 | 40.52827 | 113.70554 | 39885 ft | 551 kts | 92° |
| 2026-05-05 05:25 | 40.52091 | 113.80565 | 39909 ft | 551 kts | 92° |
| 2026-05-05 05:26 | 40.51346 | 113.90587 | 39913 ft | 550 kts | 92° |
| 2026-05-05 05:26 | 40.50595 | 114.00589 | 39909 ft | 550 kts | 92° |
| 2026-05-05 05:27 | 40.50084 | 114.10580 | 39902 ft | 547 kts | 89° |
| 2026-05-05 05:27 | 40.49560 | 114.25552 | 39918 ft | 547 kts | 89° |
| 2026-05-05 05:28 | 40.49151 | 114.35525 | 39970 ft | 545 kts | 89° |
| 2026-05-05 05:28 | 40.48932 | 114.40484 | 40087 ft | 544 kts | 89° |
| 2026-05-05 05:28 | 40.48708 | 114.45436 | 40210 ft | 542 kts | 90° |
| 2026-05-05 05:29 | 40.48482 | 114.50369 | 40332 ft | 541 kts | 90° |
| 2026-05-05 05:29 | 40.48254 | 114.55301 | 40460 ft | 540 kts | 90° |
| 2026-05-05 05:29 | 40.48026 | 114.60220 | 40587 ft | 540 kts | 90° |
| 2026-05-05 05:29 | 40.47799 | 114.65085 | 40644 ft | 541 kts | 90° |
| 2026-05-05 05:30 | 40.47329 | 114.75046 | 40647 ft | 544 kts | 90° |
| 2026-05-05 05:30 | 40.46850 | 114.84962 | 40650 ft | 544 kts | 90° |
| 2026-05-05 05:31 | 40.46365 | 114.94820 | 40648 ft | 544 kts | 90° |
| 2026-05-05 05:31 | 40.45871 | 115.04737 | 40644 ft | 544 kts | 90° |
| 2026-05-05 05:32 | 40.45369 | 115.14651 | 40651 ft | 544 kts | 90° |
| 2026-05-05 05:32 | 40.44857 | 115.24545 | 40654 ft | 543 kts | 90° |
| 2026-05-05 05:33 | 40.44338 | 115.34434 | 40662 ft | 543 kts | 90° |
| 2026-05-05 05:33 | 40.43812 | 115.44306 | 40670 ft | 542 kts | 91° |
| 2026-05-05 05:34 | 40.43277 | 115.54185 | 40678 ft | 543 kts | 91° |
| 2026-05-05 05:34 | 40.42566 | 115.64058 | 40690 ft | 544 kts | 93° |
| 2026-05-05 05:35 | 40.41703 | 115.73932 | 40700 ft | 544 kts | 93° |
| 2026-05-05 05:35 | 40.40855 | 115.83803 | 40706 ft | 544 kts | 93° |
| 2026-05-05 05:36 | 40.40032 | 115.93672 | 40711 ft | 544 kts | 93° |
| 2026-05-05 05:36 | 40.39209 | 116.03554 | 40722 ft | 545 kts | 93° |
| 2026-05-05 05:37 | 40.38377 | 116.13443 | 40728 ft | 546 kts | 93° |
| 2026-05-05 05:37 | 40.37535 | 116.23333 | 40733 ft | 545 kts | 93° |
| 2026-05-05 05:38 | 40.36684 | 116.33225 | 40745 ft | 546 kts | 94° |
| 2026-05-05 05:38 | 40.35824 | 116.43106 | 40741 ft | 545 kts | 94° |
| 2026-05-05 05:39 | 40.34962 | 116.52912 | 40737 ft | 545 kts | 94° |
| 2026-05-05 05:39 | 40.33799 | 116.62740 | 40738 ft | 548 kts | 104° |
| 2026-05-05 05:40 | 40.32489 | 116.67440 | 40737 ft | 549 kts | 115° |
| 2026-05-05 05:40 | 40.30561 | 116.71755 | 40737 ft | 549 kts | 127° |
| 2026-05-05 05:40 | 40.28053 | 116.75510 | 40733 ft | 547 kts | 139° |
| 2026-05-05 05:40 | 40.25063 | 116.78555 | 40733 ft | 544 kts | 150° |
| 2026-05-05 05:41 | 40.21711 | 116.80793 | 40734 ft | 538 kts | 162° |
| 2026-05-05 05:41 | 40.18144 | 116.82162 | 40729 ft | 532 kts | 174° |
| 2026-05-05 05:41 | 40.14502 | 116.82652 | 40730 ft | 525 kts | 185° |
| 2026-05-05 05:41 | 40.10884 | 116.82287 | 40733 ft | 517 kts | 195° |
| 2026-05-05 05:42 | 40.03720 | 116.81206 | 40727 ft | 526 kts | 184° |
| 2026-05-05 05:42 | 39.96373 | 116.82108 | 40732 ft | 532 kts | 176° |
| 2026-05-05 05:43 | 39.89048 | 116.83533 | 40736 ft | 533 kts | 175° |
| 2026-05-05 05:43 | 39.81714 | 116.85053 | 40741 ft | 533 kts | 175° |
| 2026-05-05 05:44 | 39.75629 | 116.86311 | 40742 ft | 533 kts | 175° |
| 2026-05-05 05:44 | 39.68299 | 116.87846 | 40741 ft | 533 kts | 175° |
| 2026-05-05 05:45 | 39.60976 | 116.89369 | 40741 ft | 533 kts | 175° |
| 2026-05-05 05:45 | 39.53649 | 116.90882 | 40737 ft | 533 kts | 175° |
| 2026-05-05 05:46 | 39.46320 | 116.92391 | 40736 ft | 533 kts | 175° |
| 2026-05-05 05:46 | 39.38984 | 116.93897 | 40733 ft | 533 kts | 174° |
| 2026-05-05 05:47 | 39.31711 | 116.95388 | 40732 ft | 533 kts | 174° |
| 2026-05-05 05:47 | 39.24382 | 116.96953 | 40731 ft | 535 kts | 171° |
| 2026-05-05 05:48 | 39.17414 | 117.00427 | 40741 ft | 543 kts | 150° |
| 2026-05-05 05:48 | 39.14367 | 117.03310 | 40739 ft | 545 kts | 138° |
| 2026-05-05 05:48 | 39.11791 | 117.06886 | 40747 ft | 545 kts | 127° |
| 2026-05-05 05:49 | 39.09792 | 117.11015 | 40743 ft | 544 kts | 115° |
| 2026-05-05 05:49 | 39.08435 | 117.15538 | 40749 ft | 541 kts | 103° |
| 2026-05-05 05:49 | 39.07755 | 117.20275 | 40745 ft | 537 kts | 91° |
| 2026-05-05 05:49 | 39.07757 | 117.25056 | 40754 ft | 532 kts | 80° |
| 2026-05-05 05:50 | 39.07980 | 117.34581 | 40754 ft | 538 kts | 94° |
| 2026-05-05 05:50 | 39.07802 | 117.44149 | 40743 ft | 536 kts | 89° |
| 2026-05-05 05:51 | 39.07692 | 117.53769 | 40745 ft | 537 kts | 88° |
| 2026-05-05 05:51 | 39.07582 | 117.63377 | 40749 ft | 537 kts | 88° |
| 2026-05-05 05:52 | 39.07464 | 117.72987 | 40755 ft | 537 kts | 88° |
| 2026-05-05 05:52 | 39.07337 | 117.82586 | 40756 ft | 537 kts | 88° |
| 2026-05-05 05:53 | 39.07202 | 117.92190 | 40763 ft | 537 kts | 88° |
| 2026-05-05 05:53 | 39.07006 | 118.01786 | 40757 ft | 538 kts | 92° |
| 2026-05-05 05:54 | 39.05835 | 118.11264 | 40761 ft | 540 kts | 99° |
| 2026-05-05 05:54 | 39.04350 | 118.20731 | 40765 ft | 540 kts | 100° |
| 2026-05-05 05:55 | 39.02812 | 118.30184 | 40770 ft | 540 kts | 100° |
| 2026-05-05 05:55 | 39.01282 | 118.39629 | 40771 ft | 539 kts | 100° |
| 2026-05-05 05:56 | 38.99759 | 118.49066 | 40776 ft | 539 kts | 100° |
| 2026-05-05 05:56 | 38.98241 | 118.58498 | 40775 ft | 538 kts | 100° |
| 2026-05-05 05:57 | 38.96707 | 118.67909 | 40778 ft | 538 kts | 100° |
| 2026-05-05 05:57 | 38.95164 | 118.77318 | 40783 ft | 538 kts | 100° |
| 2026-05-05 05:58 | 38.93618 | 118.86713 | 40786 ft | 537 kts | 100° |
| 2026-05-05 05:58 | 38.92067 | 118.96093 | 40786 ft | 537 kts | 101° |
| 2026-05-05 05:59 | 38.90511 | 119.05468 | 40783 ft | 537 kts | 101° |
| 2026-05-05 05:59 | 38.88946 | 119.14833 | 40786 ft | 536 kts | 101° |
| 2026-05-05 06:00 | 38.87370 | 119.24181 | 40790 ft | 536 kts | 101° |
| 2026-05-05 06:00 | 38.85790 | 119.33520 | 40793 ft | 536 kts | 101° |
| 2026-05-05 06:01 | 38.84201 | 119.42864 | 40802 ft | 536 kts | 101° |
| 2026-05-05 06:01 | 38.82610 | 119.52185 | 40805 ft | 535 kts | 101° |
| 2026-05-05 06:02 | 38.81019 | 119.61453 | 40801 ft | 535 kts | 101° |
| 2026-05-05 06:02 | 38.79413 | 119.70757 | 40810 ft | 535 kts | 101° |
| 2026-05-05 06:03 | 38.77801 | 119.80057 | 40809 ft | 534 kts | 101° |
| 2026-05-05 06:03 | 38.76210 | 119.89359 | 40810 ft | 534 kts | 100° |
| 2026-05-05 06:04 | 38.74684 | 119.98671 | 40813 ft | 534 kts | 100° |
| 2026-05-05 06:04 | 38.73113 | 120.07960 | 40803 ft | 534 kts | 103° |
| 2026-05-05 06:05 | 38.71844 | 120.12444 | 40815 ft | 536 kts | 116° |
| 2026-05-05 06:05 | 38.69889 | 120.16491 | 40822 ft | 535 kts | 129° |
| 2026-05-05 06:05 | 38.67283 | 120.19850 | 40823 ft | 532 kts | 144° |
| 2026-05-05 06:05 | 38.64152 | 120.22324 | 40825 ft | 528 kts | 158° |
| 2026-05-05 06:06 | 38.57385 | 120.25854 | 40826 ft | 530 kts | 150° |
| 2026-05-05 06:06 | 38.54469 | 120.28751 | 40826 ft | 534 kts | 135° |
| 2026-05-05 06:06 | 38.52178 | 120.32471 | 40825 ft | 534 kts | 120° |
| 2026-05-05 06:07 | 38.50661 | 120.36781 | 40827 ft | 532 kts | 105° |
| 2026-05-05 06:07 | 38.50009 | 120.41407 | 40828 ft | 528 kts | 90° |
| 2026-05-05 06:07 | 38.50260 | 120.46041 | 40833 ft | 522 kts | 75° |
| 2026-05-05 06:07 | 38.51383 | 120.50396 | 40830 ft | 514 kts | 60° |
| 2026-05-05 06:08 | 38.53295 | 120.54199 | 40837 ft | 506 kts | 45° |
| 2026-05-05 06:08 | 38.55821 | 120.57270 | 40839 ft | 500 kts | 35° |
| 2026-05-05 06:08 | 38.60791 | 120.63549 | 40833 ft | 510 kts | 50° |
| 2026-05-05 06:09 | 38.62584 | 120.67489 | 40834 ft | 517 kts | 63° |
| 2026-05-05 06:09 | 38.63666 | 120.71898 | 40839 ft | 523 kts | 77° |
| 2026-05-05 06:09 | 38.63985 | 120.76548 | 40841 ft | 528 kts | 89° |
| 2026-05-05 06:09 | 38.63563 | 120.81212 | 40838 ft | 531 kts | 101° |
| 2026-05-05 06:10 | 38.62446 | 120.85725 | 40843 ft | 533 kts | 113° |
| 2026-05-05 06:10 | 38.60699 | 120.89895 | 40843 ft | 534 kts | 124° |
| 2026-05-05 06:10 | 38.58388 | 120.93598 | 40844 ft | 533 kts | 135° |
| 2026-05-05 06:10 | 38.55603 | 120.96718 | 40848 ft | 532 kts | 145° |
| 2026-05-05 06:11 | 38.50305 | 121.03312 | 40849 ft | 535 kts | 127° |
| 2026-05-05 06:11 | 38.48333 | 121.07254 | 40855 ft | 535 kts | 116° |
| 2026-05-05 06:11 | 38.46925 | 121.11705 | 40858 ft | 533 kts | 104° |
| 2026-05-05 06:12 | 38.45193 | 121.20822 | 40857 ft | 532 kts | 100° |
| 2026-05-05 06:12 | 38.43765 | 121.30093 | 40862 ft | 533 kts | 99° |
| 2026-05-05 06:13 | 38.42343 | 121.39359 | 40868 ft | 533 kts | 100° |
| 2026-05-05 06:13 | 38.40867 | 121.48611 | 40872 ft | 533 kts | 100° |
| 2026-05-05 06:14 | 38.39338 | 121.57845 | 40874 ft | 532 kts | 101° |
| 2026-05-05 06:14 | 38.37781 | 121.67075 | 40874 ft | 532 kts | 101° |
| 2026-05-05 06:15 | 38.36225 | 121.76298 | 40880 ft | 532 kts | 101° |
| 2026-05-05 06:15 | 38.34666 | 121.85518 | 40883 ft | 532 kts | 101° |
| 2026-05-05 06:16 | 38.33104 | 121.94726 | 40885 ft | 532 kts | 101° |
| 2026-05-05 06:16 | 38.31535 | 122.03925 | 40888 ft | 532 kts | 101° |
| 2026-05-05 06:17 | 38.29958 | 122.13125 | 40892 ft | 531 kts | 101° |
| 2026-05-05 06:17 | 38.28375 | 122.22313 | 40898 ft | 531 kts | 101° |
| 2026-05-05 06:18 | 38.26866 | 122.31515 | 40907 ft | 531 kts | 99° |
| 2026-05-05 06:18 | 38.25308 | 122.40692 | 40912 ft | 531 kts | 108° |
| 2026-05-05 06:19 | 38.21948 | 122.48946 | 40916 ft | 530 kts | 128° |
| 2026-05-05 06:19 | 38.17009 | 122.55880 | 40918 ft | 529 kts | 135° |
| 2026-05-05 06:20 | 38.11804 | 122.62490 | 40925 ft | 529 kts | 136° |
| 2026-05-05 06:20 | 38.06593 | 122.69089 | 40931 ft | 529 kts | 136° |
| 2026-05-05 06:21 | 38.01435 | 122.75752 | 40937 ft | 529 kts | 136° |
| 2026-05-05 06:21 | 37.96294 | 122.82428 | 40938 ft | 529 kts | 136° |
| 2026-05-05 06:22 | 37.91151 | 122.89091 | 40944 ft | 529 kts | 136° |
| 2026-05-05 06:22 | 37.85987 | 122.95758 | 40954 ft | 529 kts | 136° |
| 2026-05-05 06:23 | 37.80828 | 123.02400 | 40958 ft | 529 kts | 136° |
| 2026-05-05 06:23 | 37.75663 | 123.09036 | 40963 ft | 530 kts | 136° |
| 2026-05-05 06:24 | 37.70496 | 123.15662 | 40965 ft | 530 kts | 136° |
| 2026-05-05 06:24 | 37.65317 | 123.22289 | 40973 ft | 530 kts | 136° |
| 2026-05-05 06:25 | 37.60138 | 123.28901 | 40977 ft | 530 kts | 136° |
| 2026-05-05 06:25 | 37.55221 | 123.35823 | 40984 ft | 532 kts | 129° |
| 2026-05-05 06:26 | 37.50719 | 123.43232 | 40986 ft | 531 kts | 128° |
| 2026-05-05 06:26 | 37.46379 | 123.50550 | 40992 ft | 521 kts | 128° |
| 2026-05-05 06:27 | 37.44222 | 123.54187 | 40834 ft | 517 kts | 128° |
| 2026-05-05 06:27 | 37.39920 | 123.61402 | 39750 ft | 515 kts | 128° |
| 2026-05-05 06:27 | 37.37763 | 123.65002 | 39138 ft | 516 kts | 128° |
| 2026-05-05 06:28 | 37.35603 | 123.68602 | 38469 ft | 516 kts | 128° |
| 2026-05-05 06:28 | 37.33441 | 123.72198 | 37748 ft | 516 kts | 128° |
| 2026-05-05 06:28 | 37.31282 | 123.75786 | 37083 ft | 514 kts | 128° |
| 2026-05-05 06:28 | 37.29130 | 123.79360 | 36419 ft | 512 kts | 128° |
| 2026-05-05 06:29 | 37.26983 | 123.82922 | 35741 ft | 511 kts | 128° |
| 2026-05-05 06:29 | 37.24838 | 123.86478 | 35135 ft | 509 kts | 128° |
| 2026-05-05 06:29 | 37.22712 | 123.90000 | 34630 ft | 504 kts | 127° |
| 2026-05-05 06:29 | 37.20616 | 123.93508 | 34111 ft | 500 kts | 125° |
| 2026-05-05 06:30 | 37.18843 | 123.97232 | 33554 ft | 496 kts | 116° |
| 2026-05-05 06:30 | 37.17618 | 124.01243 | 33033 ft | 490 kts | 105° |
| 2026-05-05 06:30 | 37.17020 | 124.05426 | 32519 ft | 484 kts | 93° |
| 2026-05-05 06:30 | 37.16958 | 124.09612 | 32035 ft | 479 kts | 88° |
| 2026-05-05 06:31 | 37.17059 | 124.13770 | 31547 ft | 474 kts | 86° |
| 2026-05-05 06:31 | 37.17166 | 124.16492 | 31234 ft | 471 kts | 86° |
| 2026-05-05 06:31 | 37.17351 | 124.20575 | 30735 ft | 467 kts | 86° |
| 2026-05-05 06:31 | 37.17538 | 124.24625 | 30251 ft | 463 kts | 86° |
| 2026-05-05 06:32 | 37.17751 | 124.29941 | 29569 ft | 457 kts | 87° |
| 2026-05-05 06:32 | 37.17864 | 124.33898 | 29091 ft | 452 kts | 87° |
| 2026-05-05 06:32 | 37.17956 | 124.37812 | 28627 ft | 446 kts | 88° |
| 2026-05-05 06:32 | 37.18041 | 124.41682 | 28165 ft | 441 kts | 88° |
| 2026-05-05 06:33 | 37.18099 | 124.44269 | 27856 ft | 438 kts | 88° |
| 2026-05-05 06:33 | 37.18182 | 124.48057 | 27401 ft | 433 kts | 88° |
| 2026-05-05 06:33 | 37.18263 | 124.51820 | 26941 ft | 428 kts | 88° |
| 2026-05-05 06:33 | 37.18344 | 124.55536 | 26497 ft | 424 kts | 88° |
| 2026-05-05 06:34 | 37.18423 | 124.59166 | 26039 ft | 420 kts | 88° |
| 2026-05-05 06:34 | 37.18503 | 124.62812 | 25574 ft | 417 kts | 88° |
| 2026-05-05 06:34 | 37.18582 | 124.66432 | 25129 ft | 413 kts | 88° |
| 2026-05-05 06:34 | 37.18660 | 124.70017 | 24671 ft | 410 kts | 88° |
| 2026-05-05 06:35 | 37.18737 | 124.73573 | 24214 ft | 407 kts | 88° |
| 2026-05-05 06:35 | 37.18812 | 124.77106 | 23755 ft | 404 kts | 88° |
| 2026-05-05 06:35 | 37.18885 | 124.80613 | 23244 ft | 401 kts | 88° |
| 2026-05-05 06:35 | 37.18957 | 124.84094 | 22778 ft | 396 kts | 88° |
| 2026-05-05 06:36 | 37.19028 | 124.87528 | 22331 ft | 391 kts | 88° |
| 2026-05-05 06:36 | 37.19094 | 124.90921 | 21872 ft | 387 kts | 88° |
| 2026-05-05 06:36 | 37.19158 | 124.94280 | 21420 ft | 383 kts | 88° |
| 2026-05-05 06:36 | 37.19221 | 124.97602 | 20972 ft | 380 kts | 88° |
| 2026-05-05 06:37 | 37.19284 | 125.00899 | 20524 ft | 376 kts | 88° |
| 2026-05-05 06:37 | 37.19345 | 125.04169 | 20062 ft | 373 kts | 88° |
| 2026-05-05 06:37 | 37.19404 | 125.07411 | 19615 ft | 371 kts | 88° |
| 2026-05-05 06:37 | 37.19462 | 125.10632 | 19160 ft | 368 kts | 88° |
| 2026-05-05 06:38 | 37.19519 | 125.13830 | 18709 ft | 366 kts | 89° |
| 2026-05-05 06:38 | 37.19575 | 125.17015 | 18242 ft | 364 kts | 89° |
| 2026-05-05 06:38 | 37.19630 | 125.20175 | 17758 ft | 361 kts | 89° |
| 2026-05-05 06:38 | 37.19684 | 125.23313 | 17300 ft | 358 kts | 89° |
| 2026-05-05 06:39 | 37.19737 | 125.26415 | 16858 ft | 354 kts | 89° |
| 2026-05-05 06:39 | 37.19788 | 125.29494 | 16415 ft | 351 kts | 89° |
| 2026-05-05 06:39 | 37.19837 | 125.32538 | 15990 ft | 348 kts | 89° |
| 2026-05-05 06:39 | 37.19885 | 125.35556 | 15554 ft | 345 kts | 89° |
| 2026-05-05 06:40 | 37.19932 | 125.38549 | 15119 ft | 342 kts | 89° |
| 2026-05-05 06:40 | 37.19979 | 125.41515 | 14707 ft | 339 kts | 90° |
| 2026-05-05 06:40 | 37.20024 | 125.44416 | 14305 ft | 336 kts | 90° |
| 2026-05-05 06:40 | 37.20142 | 125.47366 | 13867 ft | 333 kts | 83° |
| 2026-05-05 06:41 | 37.20812 | 125.50122 | 13463 ft | 331 kts | 64° |
| 2026-05-05 06:41 | 37.21938 | 125.52580 | 13046 ft | 328 kts | 59° |
| 2026-05-05 06:41 | 37.23147 | 125.54999 | 12658 ft | 326 kts | 58° |
| 2026-05-05 06:41 | 37.24350 | 125.57410 | 12248 ft | 326 kts | 58° |
| 2026-05-05 06:42 | 37.25543 | 125.59818 | 11862 ft | 326 kts | 58° |
| 2026-05-05 06:42 | 37.26738 | 125.62243 | 11368 ft | 326 kts | 58° |
| 2026-05-05 06:42 | 37.27924 | 125.64655 | 10952 ft | 324 kts | 58° |
| 2026-05-05 06:42 | 37.29103 | 125.67061 | 10578 ft | 323 kts | 58° |
| 2026-05-05 06:43 | 37.30275 | 125.69454 | 10297 ft | 317 kts | 58° |
| 2026-05-05 06:43 | 37.31408 | 125.71770 | 10189 ft | 305 kts | 58° |
| 2026-05-05 06:43 | 37.32495 | 125.73996 | 10082 ft | 293 kts | 58° |
| 2026-05-05 06:43 | 37.33546 | 125.76146 | 9850 ft | 288 kts | 58° |
| 2026-05-05 06:44 | 37.34669 | 125.78310 | 9515 ft | 301 kts | 55° |
| 2026-05-05 06:44 | 37.35861 | 125.80486 | 9189 ft | 302 kts | 55° |
| 2026-05-05 06:44 | 37.37047 | 125.82655 | 8858 ft | 300 kts | 55° |
| 2026-05-05 06:44 | 37.38221 | 125.84818 | 8559 ft | 299 kts | 55° |
| 2026-05-05 06:45 | 37.39383 | 125.86971 | 8244 ft | 297 kts | 55° |
| 2026-05-05 06:45 | 37.40541 | 125.89121 | 7943 ft | 296 kts | 55° |
| 2026-05-05 06:45 | 37.41691 | 125.91261 | 7632 ft | 295 kts | 56° |
| 2026-05-05 06:45 | 37.42836 | 125.93396 | 7329 ft | 294 kts | 56° |
| 2026-05-05 06:46 | 37.43976 | 125.95525 | 7013 ft | 293 kts | 56° |
| 2026-05-05 06:46 | 37.45108 | 125.97638 | 6731 ft | 288 kts | 56° |
| 2026-05-05 06:46 | 37.46208 | 125.99695 | 6568 ft | 277 kts | 56° |
| 2026-05-05 06:46 | 37.47234 | 126.01616 | 6381 ft | 259 kts | 56° |
| 2026-05-05 06:47 | 37.48213 | 126.03446 | 6168 ft | 246 kts | 56° |
| 2026-05-05 06:47 | 37.49156 | 126.05211 | 5825 ft | 241 kts | 56° |
| 2026-05-05 06:47 | 37.50087 | 126.06955 | 5422 ft | 239 kts | 56° |
| 2026-05-05 06:47 | 37.51008 | 126.08680 | 5074 ft | 235 kts | 56° |
| 2026-05-05 06:48 | 37.51907 | 126.10366 | 4783 ft | 230 kts | 56° |
| 2026-05-05 06:48 | 37.52797 | 126.12035 | 4536 ft | 230 kts | 57° |
| 2026-05-05 06:48 | 37.53687 | 126.13705 | 4287 ft | 230 kts | 57° |
| 2026-05-05 06:48 | 37.54576 | 126.15375 | 4042 ft | 229 kts | 57° |
| 2026-05-05 06:49 | 37.55462 | 126.17039 | 3885 ft | 229 kts | 57° |
| 2026-05-05 06:49 | 37.56352 | 126.18714 | 3737 ft | 231 kts | 57° |
| 2026-05-05 06:49 | 37.57243 | 126.20388 | 3623 ft | 229 kts | 57° |
| 2026-05-05 06:49 | 37.58154 | 126.22017 | 3552 ft | 227 kts | 55° |
| 2026-05-05 06:50 | 37.59082 | 126.23635 | 3388 ft | 228 kts | 55° |
| 2026-05-05 06:50 | 37.60031 | 126.25293 | 3176 ft | 237 kts | 56° |
| 2026-05-05 06:50 | 37.60854 | 126.27071 | 2909 ft | 234 kts | 75° |
| 2026-05-05 06:50 | 37.60830 | 126.29022 | 2665 ft | 224 kts | 116° |
| 2026-05-05 06:51 | 37.59884 | 126.30457 | 2511 ft | 202 kts | 153° |
| 2026-05-05 06:51 | 37.58731 | 126.31281 | 2494 ft | 182 kts | 158° |
| 2026-05-05 06:51 | 37.57670 | 126.31941 | 2450 ft | 159 kts | 165° |
| 2026-05-05 06:51 | 37.56760 | 126.32628 | 2380 ft | 149 kts | 150° |
| 2026-05-05 06:52 | 37.55933 | 126.33378 | 2262 ft | 142 kts | 154° |
| 2026-05-05 06:52 | 37.55121 | 126.34043 | 2081 ft | 137 kts | 155° |
| 2026-05-05 06:52 | 37.54328 | 126.34710 | 1898 ft | 136 kts | 153° |
| 2026-05-05 06:52 | 37.53558 | 126.35384 | 1714 ft | 134 kts | 152° |
| 2026-05-05 06:53 | 37.52802 | 126.36064 | 1541 ft | 135 kts | 151° |
| 2026-05-05 06:53 | 37.52034 | 126.36747 | 1346 ft | 133 kts | 151° |
| 2026-05-05 06:53 | 37.51278 | 126.37418 | 1158 ft | 133 kts | 151° |
| 2026-05-05 06:53 | 37.50522 | 126.38090 | 980 ft | 134 kts | 150° |
| 2026-05-05 06:54 | 37.49770 | 126.38763 | 774 ft | 133 kts | 150° |
| 2026-05-05 06:54 | 37.49020 | 126.39432 | 589 ft | 132 kts | 151° |
| 2026-05-05 06:54 | 37.48258 | 126.40111 | 404 ft | 136 kts | 150° |
| 2026-05-05 06:54 | 37.47496 | 126.40794 | 215 ft | 133 kts | 152° |
| 2026-05-05 06:55 | 37.46747 | 126.41459 | 69 ft | 131 kts | 153° |
| 2026-05-05 06:55 | 37.46016 | 126.42091 | 38 ft | 115 kts | 145° |
| 2026-05-05 06:55 | 37.45548 | 126.42514 | 36 ft | 63 kts | 143° |
| 2026-05-05 06:55 | 37.45354 | 126.42751 | 38 ft | 32 kts | 124° |
| 2026-05-05 06:56 | 37.45261 | 126.42988 | 39 ft | 29 kts | 116° |
| 2026-05-05 06:56 | 37.45151 | 126.43143 | 38 ft | 21 kts | 146° |
| 2026-05-05 06:56 | 37.45085 | 126.43246 | 38 ft | 9 kts | 85° |
| 2026-05-05 06:56 | 37.45125 | 126.43338 | 37 ft | 17 kts | 56° |
| 2026-05-05 06:57 | 37.45207 | 126.43483 | 38 ft | 20 kts | 54° |
| 2026-05-05 06:57 | 37.45249 | 126.43620 | 38 ft | 17 kts | 104° |
| 2026-05-05 06:57 | 37.45188 | 126.43688 | 38 ft | 13 kts | 146° |
| 2026-05-05 06:57 | 37.45092 | 126.43767 | 39 ft | 20 kts | 146° |
| 2026-05-05 06:58 | 37.44963 | 126.43882 | 39 ft | 24 kts | 145° |
| 2026-05-05 06:58 | 37.44937 | 126.44029 | 39 ft | 17 kts | 54° |
| 2026-05-05 06:58 | 37.45021 | 126.44182 | 37 ft | 25 kts | 56° |
| 2026-05-05 06:58 | 37.45121 | 126.44359 | 38 ft | 28 kts | 54° |
| 2026-05-05 06:59 | 37.45220 | 126.44542 | 38 ft | 18 kts | 66° |
| 2026-05-05 06:59 | 37.45206 | 126.44663 | 38 ft | 8 kts | 143° |
| 2026-05-05 06:59 | 37.45163 | 126.44659 | 38 ft | 7 kts | 201° |
| 2026-05-05 06:59 | 37.45125 | 126.44641 | 38 ft | 1 kts | 201° |
| 2026-05-05 07:00 | 37.45122 | 126.44640 | 38 ft | 0 kts | 201° |
| 2026-05-05 07:00 | 37.45116 | 126.44637 | 38 ft | 0 kts | 201° |